Time,TemperatureF,DewpointF,PressureIn,WindDirection,WindDirectionDegrees,WindSpeedMPH,WindSpeedGustMPH,Humidity,HourlyPrecipIn,Conditions,Clouds,dailyrainin,SoftwareType,DateUTC
2013-05-25 00:00:00,61.0,57.7,25.28,SSW,209,0.0,0.0,89,0.00,,---,0.00,VWS V14.01,2013-05-25 06:00:00,
2013-05-25 00:02:00,61.0,57.7,25.28,SSW,209,0.0,0.0,89,0.00,,---,0.00,VWS V14.01,2013-05-25 06:02:00,
2013-05-25 00:05:00,61.2,58.2,25.28,SSW,209,0.0,0.0,90,0.00,,---,0.00,VWS V14.01,2013-05-25 06:05:00,
2013-05-25 00:06:00,61.2,58.2,25.28,SSW,209,0.0,0.0,90,0.00,,---,0.00,VWS V14.01,2013-05-25 06:06:00,
2013-05-25 00:07:00,61.2,58.2,25.28,SE,136,0.0,0.0,90,0.00,,---,0.00,VWS V14.01,2013-05-25 06:07:00,
2013-05-25 00:08:00,61.2,58.2,25.28,SE,136,0.0,0.0,90,0.00,,---,0.00,VWS V14.01,2013-05-25 06:08:00,
2013-05-25 00:13:00,62.1,59.4,25.28,ESE,115,4.0,4.0,91,0.00,,---,0.00,VWS V14.01,2013-05-25 06:13:00,
2013-05-25 00:14:00,62.1,59.4,25.28,ESE,119,0.0,4.0,91,0.00,,---,0.00,VWS V14.01,2013-05-25 06:14:00,
2013-05-25 00:15:00,62.1,59.4,25.28,ESE,119,0.0,0.0,91,0.00,,---,0.00,VWS V14.01,2013-05-25 06:15:00,
2013-05-25 00:16:00,62.1,59.4,25.28,SE,125,3.1,3.1,91,0.00,,---,0.00,VWS V14.01,2013-05-25 06:16:00,
2013-05-25 00:17:00,62.1,59.4,25.28,SE,125,3.1,3.1,91,0.00,,---,0.00,VWS V14.01,2013-05-25 06:17:00,
2013-05-25 00:20:00,62.1,59.4,25.28,SE,145,3.6,3.6,91,0.00,,---,0.00,VWS V14.01,2013-05-25 06:20:00,
2013-05-25 00:21:00,62.1,59.4,25.28,SE,145,3.6,3.6,91,0.00,,---,0.00,VWS V14.01,2013-05-25 06:21:00,
2013-05-25 00:24:00,62.1,59.4,25.28,ESE,110,0.0,3.6,91,0.00,,---,0.00,VWS V14.01,2013-05-25 06:24:00,
2013-05-25 00:25:00,62.1,59.4,25.28,SE,146,3.6,3.6,91,0.00,,---,0.00,VWS V14.01,2013-05-25 06:25:00,
2013-05-25 00:26:00,62.1,59.4,25.28,SE,146,3.6,3.6,91,0.00,,---,0.00,VWS V14.01,2013-05-25 06:26:00,
2013-05-25 00:27:00,62.1,59.4,25.28,SSE,151,0.0,3.6,91,0.00,,---,0.00,VWS V14.01,2013-05-25 06:27:00,
2013-05-25 00:28:00,62.6,57.7,25.28,SSE,151,0.0,0.0,84,0.00,,---,0.00,VWS V14.01,2013-05-25 06:28:00,
2013-05-25 00:32:00,62.6,57.4,25.28,SSW,207,0.0,0.0,83,0.00,,---,0.00,VWS V14.01,2013-05-25 06:32:00,
2013-05-25 00:34:00,62.6,57.0,25.28,SSW,206,0.0,0.0,82,0.00,,---,0.00,VWS V14.01,2013-05-25 06:34:00,
2013-05-25 00:35:00,62.6,57.0,25.28,SE,141,0.0,0.0,82,0.00,,---,0.00,VWS V14.01,2013-05-25 06:35:00,
2013-05-25 00:37:00,62.4,56.9,25.28,SE,141,0.0,0.0,82,0.00,,---,0.00,VWS V14.01,2013-05-25 06:37:00,
2013-05-25 00:39:00,62.4,56.5,25.28,SE,141,0.0,0.0,81,0.00,,---,0.00,VWS V14.01,2013-05-25 06:39:00,
2013-05-25 00:40:00,62.4,56.5,25.28,SE,124,2.7,2.7,81,0.00,,---,0.00,VWS V14.01,2013-05-25 06:40:00,
2013-05-25 00:42:00,62.4,56.5,25.28,ESE,109,2.7,2.7,81,0.00,,---,0.00,VWS V14.01,2013-05-25 06:42:00,
2013-05-25 00:43:00,62.4,56.5,25.28,ESE,109,2.7,2.7,81,0.00,,---,0.00,VWS V14.01,2013-05-25 06:43:00,
2013-05-25 00:45:00,62.4,56.5,25.28,ESE,111,0.0,0.0,81,0.00,,---,0.00,VWS V14.01,2013-05-25 06:45:00,
2013-05-25 00:48:00,62.4,56.5,25.28,ESE,114,0.0,0.0,81,0.00,,---,0.00,VWS V14.01,2013-05-25 06:48:00,
2013-05-25 00:49:00,62.4,56.5,25.28,SSE,153,0.0,0.0,81,0.00,,---,0.00,VWS V14.01,2013-05-25 06:49:00,
2013-05-25 00:50:00,62.4,56.5,25.28,SSE,153,0.0,0.0,81,0.00,,---,0.00,VWS V14.01,2013-05-25 06:50:00,
2013-05-25 00:53:00,62.6,56.3,25.28,SE,134,2.7,3.1,80,0.00,,---,0.00,VWS V14.01,2013-05-25 06:53:00,
2013-05-25 00:55:00,62.6,56.3,25.28,SE,134,2.7,2.7,80,0.00,,---,0.00,VWS V14.01,2013-05-25 06:55:00,
2013-05-25 00:56:00,62.6,56.3,25.28,SE,134,2.7,2.7,80,0.00,,---,0.00,VWS V14.01,2013-05-25 06:56:00,
2013-05-25 01:00:00,62.6,56.3,25.28,South,186,2.2,2.7,80,0.00,,---,0.00,VWS V14.01,2013-05-25 07:00:00,
2013-05-25 01:02:00,62.6,56.3,25.28,ESE,120,0.0,0.0,80,0.00,,---,0.00,VWS V14.01,2013-05-25 07:02:00,
2013-05-25 01:04:00,63.0,56.0,25.28,SE,129,0.0,0.0,78,0.00,,---,0.00,VWS V14.01,2013-05-25 07:04:00,
2013-05-25 01:06:00,63.0,56.0,25.28,SE,129,0.0,0.0,78,0.00,,---,0.00,VWS V14.01,2013-05-25 07:06:00,
2013-05-25 01:07:00,63.0,56.0,25.28,SE,129,0.0,0.0,78,0.00,,---,0.00,VWS V14.01,2013-05-25 07:07:00,
2013-05-25 01:09:00,63.0,56.0,25.28,SSE,160,0.0,0.0,78,0.00,,---,0.00,VWS V14.01,2013-05-25 07:09:00,
2013-05-25 01:12:00,63.0,56.0,25.28,South,173,0.0,0.0,78,0.00,,---,0.00,VWS V14.01,2013-05-25 07:12:00,
2013-05-25 01:14:00,63.0,56.0,25.28,SW,227,0.0,0.0,78,0.00,,---,0.00,VWS V14.01,2013-05-25 07:14:00,
2013-05-25 01:15:00,63.0,56.0,25.28,SW,227,0.0,0.0,78,0.00,,---,0.00,VWS V14.01,2013-05-25 07:15:00,
2013-05-25 01:16:00,63.0,56.0,25.28,SW,227,0.0,0.0,78,0.00,,---,0.00,VWS V14.01,2013-05-25 07:16:00,
2013-05-25 01:19:00,63.0,56.0,25.28,SSW,194,2.7,2.7,78,0.00,,---,0.00,VWS V14.01,2013-05-25 07:19:00,
2013-05-25 01:22:00,62.8,56.2,25.25,SSW,194,0.0,0.0,79,0.00,,---,0.00,VWS V14.01,2013-05-25 07:22:00,
2013-05-25 01:23:00,62.8,56.2,25.25,SSW,194,0.0,0.0,79,0.00,,---,0.00,VWS V14.01,2013-05-25 07:23:00,
2013-05-25 01:24:00,62.8,56.2,25.25,SSW,194,0.0,0.0,79,0.00,,---,0.00,VWS V14.01,2013-05-25 07:24:00,
2013-05-25 01:25:00,62.8,56.2,25.25,SSW,194,0.0,0.0,79,0.00,,---,0.00,VWS V14.01,2013-05-25 07:25:00,
2013-05-25 01:26:00,62.8,56.2,25.25,SE,135,0.0,0.0,79,0.00,,---,0.00,VWS V14.01,2013-05-25 07:26:00,
2013-05-25 01:27:00,62.8,56.2,25.25,SE,135,0.0,0.0,79,0.00,,---,0.00,VWS V14.01,2013-05-25 07:27:00,
2013-05-25 01:30:00,62.2,56.3,25.25,SE,135,0.0,0.0,81,0.00,,---,0.00,VWS V14.01,2013-05-25 07:30:00,
2013-05-25 01:32:00,62.2,56.7,25.25,South,174,0.0,0.0,82,0.00,,---,0.00,VWS V14.01,2013-05-25 07:32:00,
2013-05-25 01:33:00,62.2,56.7,25.25,South,174,0.0,0.0,82,0.00,,---,0.00,VWS V14.01,2013-05-25 07:33:00,
2013-05-25 01:37:00,62.2,56.7,25.25,SSW,198,0.0,0.0,82,0.00,,---,0.00,VWS V14.01,2013-05-25 07:37:00,
2013-05-25 01:38:00,62.2,57.0,25.25,SSW,198,0.0,0.0,83,0.00,,---,0.00,VWS V14.01,2013-05-25 07:38:00,
2013-05-25 01:39:00,62.2,57.0,25.25,SSW,198,0.0,0.0,83,0.00,,---,0.00,VWS V14.01,2013-05-25 07:39:00,
2013-05-25 01:41:00,62.2,57.3,25.25,SE,127,3.6,3.6,84,0.00,,---,0.00,VWS V14.01,2013-05-25 07:41:00,
2013-05-25 01:43:00,62.2,57.3,25.25,SE,127,3.1,3.6,84,0.00,,---,0.00,VWS V14.01,2013-05-25 07:43:00,
2013-05-25 01:44:00,62.2,57.3,25.25,SE,127,0.0,3.1,84,0.00,,---,0.00,VWS V14.01,2013-05-25 07:44:00,
2013-05-25 01:45:00,62.2,57.3,25.25,SE,127,0.0,0.0,84,0.00,,---,0.00,VWS V14.01,2013-05-25 07:45:00,
2013-05-25 01:46:00,62.6,57.7,25.25,SE,127,0.0,0.0,84,0.00,,---,0.00,VWS V14.01,2013-05-25 07:46:00,
2013-05-25 01:48:00,62.6,57.7,25.25,SE,127,0.0,0.0,84,0.00,,---,0.00,VWS V14.01,2013-05-25 07:48:00,
2013-05-25 01:49:00,62.6,57.7,25.25,SE,127,0.0,0.0,84,0.00,,---,0.00,VWS V14.01,2013-05-25 07:49:00,
2013-05-25 01:51:00,62.6,57.7,25.25,SE,127,0.0,0.0,84,0.00,,---,0.00,VWS V14.01,2013-05-25 07:51:00,
2013-05-25 01:53:00,62.6,57.7,25.25,ESE,116,0.0,0.0,84,0.00,,---,0.00,VWS V14.01,2013-05-25 07:53:00,
2013-05-25 01:54:00,62.6,57.7,25.25,SE,130,0.0,0.0,84,0.00,,---,0.00,VWS V14.01,2013-05-25 07:54:00,
2013-05-25 01:58:00,63.0,56.3,25.25,SSE,158,0.0,0.0,79,0.00,,---,0.00,VWS V14.01,2013-05-25 07:58:00,
2013-05-25 02:00:00,63.0,56.3,25.25,South,181,2.2,2.2,79,0.00,,---,0.00,VWS V14.01,2013-05-25 08:00:00,
2013-05-25 02:01:00,63.0,56.3,25.25,South,181,2.2,2.2,79,0.00,,---,0.00,VWS V14.01,2013-05-25 08:01:00,
2013-05-25 02:03:00,63.0,56.3,25.25,SSE,147,2.2,2.2,79,0.00,,---,0.00,VWS V14.01,2013-05-25 08:03:00,
2013-05-25 02:04:00,63.0,56.3,25.25,SSE,147,2.2,2.2,79,0.00,,---,0.00,VWS V14.01,2013-05-25 08:04:00,
2013-05-25 02:07:00,63.0,56.3,25.25,SSE,154,0.0,0.0,79,0.00,,---,0.00,VWS V14.01,2013-05-25 08:07:00,
2013-05-25 02:09:00,62.8,56.2,25.25,SSE,154,0.0,0.0,79,0.00,,---,0.00,VWS V14.01,2013-05-25 08:09:00,
2013-05-25 02:10:00,62.8,56.2,25.25,SSE,154,0.0,0.0,79,0.00,,---,0.00,VWS V14.01,2013-05-25 08:10:00,
2013-05-25 02:13:00,62.8,56.2,25.25,SE,128,3.1,3.1,79,0.00,,---,0.00,VWS V14.01,2013-05-25 08:13:00,
2013-05-25 02:15:00,62.8,56.2,25.25,SE,128,3.1,3.1,79,0.00,,---,0.00,VWS V14.01,2013-05-25 08:15:00,
2013-05-25 02:17:00,62.8,56.5,25.25,SE,144,0.0,0.0,80,0.00,,---,0.00,VWS V14.01,2013-05-25 08:17:00,
2013-05-25 02:19:00,62.8,56.5,25.25,SE,142,0.0,0.0,80,0.00,,---,0.00,VWS V14.01,2013-05-25 08:19:00,
2013-05-25 02:20:00,62.6,56.3,25.25,SE,142,0.0,0.0,80,0.00,,---,0.00,VWS V14.01,2013-05-25 08:20:00,
2013-05-25 02:22:00,62.6,56.3,25.25,SE,142,0.0,0.0,80,0.00,,---,0.00,VWS V14.01,2013-05-25 08:22:00,
2013-05-25 02:23:00,62.6,56.3,25.25,SE,142,0.0,0.0,80,0.00,,---,0.00,VWS V14.01,2013-05-25 08:23:00,
2013-05-25 02:26:00,62.4,56.5,25.25,SSE,151,0.0,2.2,81,0.00,,---,0.00,VWS V14.01,2013-05-25 08:26:00,
2013-05-25 02:27:00,62.4,56.5,25.25,SSE,151,0.0,0.0,81,0.00,,---,0.00,VWS V14.01,2013-05-25 08:27:00,
2013-05-25 02:30:00,62.6,56.7,25.25,SSE,151,3.1,3.1,81,0.00,,---,0.00,VWS V14.01,2013-05-25 08:30:00,
2013-05-25 02:32:00,62.6,57.0,25.25,SSE,151,3.1,3.1,82,0.00,,---,0.00,VWS V14.01,2013-05-25 08:32:00,
2013-05-25 02:34:00,62.8,57.2,25.25,SSW,206,0.0,0.0,82,0.00,,---,0.00,VWS V14.01,2013-05-25 08:34:00,
2013-05-25 02:37:00,62.8,57.2,25.25,SSE,160,0.0,0.0,82,0.00,,---,0.00,VWS V14.01,2013-05-25 08:37:00,
2013-05-25 02:38:00,62.8,57.2,25.25,SSE,160,0.0,0.0,82,0.00,,---,0.00,VWS V14.01,2013-05-25 08:38:00,
2013-05-25 02:39:00,62.8,57.2,25.25,SSE,160,0.0,0.0,82,0.00,,---,0.00,VWS V14.01,2013-05-25 08:39:00,
2013-05-25 02:41:00,62.6,57.0,25.25,SSW,196,3.1,3.1,82,0.00,,---,0.00,VWS V14.01,2013-05-25 08:41:00,
2013-05-25 02:44:00,62.6,56.7,25.25,SSW,196,3.1,3.1,81,0.00,,---,0.00,VWS V14.01,2013-05-25 08:44:00,
2013-05-25 02:46:00,62.6,57.0,25.25,South,191,0.0,3.1,82,0.00,,---,0.00,VWS V14.01,2013-05-25 08:46:00,
2013-05-25 02:47:00,62.6,57.0,25.25,South,191,0.0,0.0,82,0.00,,---,0.00,VWS V14.01,2013-05-25 08:47:00,
2013-05-25 02:48:00,62.4,56.9,25.25,South,191,0.0,0.0,82,0.00,,---,0.00,VWS V14.01,2013-05-25 08:48:00,
2013-05-25 02:50:00,62.4,56.9,25.25,South,191,0.0,0.0,82,0.00,,---,0.00,VWS V14.01,2013-05-25 08:50:00,
2013-05-25 02:52:00,62.2,56.7,25.25,South,191,0.0,0.0,82,0.00,,---,0.00,VWS V14.01,2013-05-25 08:52:00,
2013-05-25 02:55:00,62.2,56.7,25.25,SSW,201,0.0,0.0,82,0.00,,---,0.00,VWS V14.01,2013-05-25 08:55:00,
2013-05-25 02:56:00,62.2,57.0,25.25,SSW,201,0.0,0.0,83,0.00,,---,0.00,VWS V14.01,2013-05-25 08:56:00,
2013-05-25 02:57:00,62.2,57.0,25.25,SSW,201,0.0,0.0,83,0.00,,---,0.00,VWS V14.01,2013-05-25 08:57:00,
2013-05-25 03:00:00,62.1,56.8,25.25,SSW,201,0.0,0.0,83,0.00,,---,0.00,VWS V14.01,2013-05-25 09:00:00,
2013-05-25 03:01:00,62.1,56.8,25.25,SSW,201,0.0,0.0,83,0.00,,---,0.00,VWS V14.01,2013-05-25 09:01:00,
2013-05-25 03:03:00,61.9,56.7,25.25,SSW,201,0.0,0.0,83,0.00,,---,0.00,VWS V14.01,2013-05-25 09:03:00,
2013-05-25 03:06:00,61.9,56.7,25.25,SSW,201,0.0,0.0,83,0.00,,---,0.00,VWS V14.01,2013-05-25 09:06:00,
2013-05-25 03:07:00,61.9,56.7,25.25,SSW,201,0.0,0.0,83,0.00,,---,0.00,VWS V14.01,2013-05-25 09:07:00,
2013-05-25 03:08:00,61.7,56.5,25.25,SSW,193,0.0,0.0,83,0.00,,---,0.00,VWS V14.01,2013-05-25 09:08:00,
2013-05-25 03:13:00,61.7,56.8,25.25,SSW,193,2.2,2.2,84,0.00,,---,0.00,VWS V14.01,2013-05-25 09:13:00,
2013-05-25 03:14:00,61.7,56.8,25.25,SSW,193,0.0,2.2,84,0.00,,---,0.00,VWS V14.01,2013-05-25 09:14:00,
2013-05-25 03:15:00,61.5,56.7,25.25,SSW,193,0.0,0.0,84,0.00,,---,0.00,VWS V14.01,2013-05-25 09:15:00,
2013-05-25 03:19:00,61.5,57.0,25.25,SSW,193,0.0,0.0,85,0.00,,---,0.00,VWS V14.01,2013-05-25 09:19:00,
2013-05-25 03:21:00,61.5,57.0,25.25,SSW,193,0.0,0.0,85,0.00,,---,0.00,VWS V14.01,2013-05-25 09:21:00,
2013-05-25 03:22:00,61.5,57.0,25.25,SSW,193,0.0,0.0,85,0.00,,---,0.00,VWS V14.01,2013-05-25 09:22:00,
2013-05-25 03:24:00,61.5,57.0,25.25,SSW,193,0.0,0.0,85,0.00,,---,0.00,VWS V14.01,2013-05-25 09:24:00,
2013-05-25 03:28:00,61.3,57.1,25.25,SSW,193,0.0,0.0,86,0.00,,---,0.00,VWS V14.01,2013-05-25 09:28:00,
2013-05-25 03:29:00,61.3,57.1,25.25,SSW,193,0.0,0.0,86,0.00,,---,0.00,VWS V14.01,2013-05-25 09:29:00,
2013-05-25 03:30:00,61.3,57.1,25.25,SSW,193,0.0,0.0,86,0.00,,---,0.00,VWS V14.01,2013-05-25 09:30:00,
2013-05-25 03:32:00,61.3,57.1,25.25,SSW,193,0.0,0.0,86,0.00,,---,0.00,VWS V14.01,2013-05-25 09:32:00,
2013-05-25 03:36:00,61.3,57.1,25.25,SSW,193,0.0,0.0,86,0.00,,---,0.00,VWS V14.01,2013-05-25 09:36:00,
2013-05-25 03:37:00,61.3,57.1,25.25,SSW,193,0.0,0.0,86,0.00,,---,0.00,VWS V14.01,2013-05-25 09:37:00,
2013-05-25 03:39:00,61.3,57.1,25.25,SSW,193,0.0,0.0,86,0.00,,---,0.00,VWS V14.01,2013-05-25 09:39:00,
2013-05-25 03:41:00,61.3,57.1,25.25,SSW,193,0.0,0.0,86,0.00,,---,0.00,VWS V14.01,2013-05-25 09:41:00,
2013-05-25 03:42:00,61.2,57.0,25.25,SSW,193,0.0,0.0,86,0.00,,---,0.00,VWS V14.01,2013-05-25 09:42:00,
2013-05-25 03:43:00,61.2,57.0,25.25,SSW,193,0.0,0.0,86,0.00,,---,0.00,VWS V14.01,2013-05-25 09:43:00,
2013-05-25 03:46:00,61.2,57.3,25.25,SSW,193,0.0,0.0,87,0.00,,---,0.00,VWS V14.01,2013-05-25 09:46:00,
2013-05-25 03:47:00,61.2,57.3,25.25,SSW,193,0.0,0.0,87,0.00,,---,0.00,VWS V14.01,2013-05-25 09:47:00,
2013-05-25 03:48:00,61.2,57.3,25.25,SSW,193,0.0,0.0,87,0.00,,---,0.00,VWS V14.01,2013-05-25 09:48:00,
2013-05-25 03:49:00,61.2,57.3,25.25,SSW,193,0.0,0.0,87,0.00,,---,0.00,VWS V14.01,2013-05-25 09:49:00,
2013-05-25 03:50:00,61.2,57.3,25.25,SSW,193,0.0,0.0,87,0.00,,---,0.00,VWS V14.01,2013-05-25 09:50:00,
2013-05-25 03:53:00,61.2,57.3,25.25,SSW,193,0.0,0.0,87,0.00,,---,0.00,VWS V14.01,2013-05-25 09:53:00,
2013-05-25 03:54:00,61.2,57.3,25.25,SSW,193,0.0,0.0,87,0.00,,---,0.00,VWS V14.01,2013-05-25 09:54:00,
2013-05-25 03:58:00,61.2,57.3,25.25,SSW,193,0.0,0.0,87,0.00,,---,0.00,VWS V14.01,2013-05-25 09:58:00,
2013-05-25 03:59:00,61.2,57.6,25.25,SSW,193,0.0,0.0,88,0.00,,---,0.00,VWS V14.01,2013-05-25 09:59:00,
2013-05-25 04:01:00,61.2,57.6,25.25,SSW,193,0.0,0.0,88,0.00,,---,0.00,VWS V14.01,2013-05-25 10:01:00,
2013-05-25 04:02:00,61.2,57.6,25.25,SSW,193,0.0,0.0,88,0.00,,---,0.00,VWS V14.01,2013-05-25 10:02:00,
2013-05-25 04:06:00,61.0,57.4,25.25,SSW,193,0.0,0.0,88,0.00,,---,0.00,VWS V14.01,2013-05-25 10:06:00,
2013-05-25 04:07:00,61.0,57.4,25.25,SSW,193,0.0,0.0,88,0.00,,---,0.00,VWS V14.01,2013-05-25 10:07:00,
2013-05-25 04:08:00,61.0,57.4,25.25,SSW,193,0.0,0.0,88,0.00,,---,0.00,VWS V14.01,2013-05-25 10:08:00,
2013-05-25 04:09:00,61.0,57.4,25.25,SSW,193,0.0,0.0,88,0.00,,---,0.00,VWS V14.01,2013-05-25 10:09:00,
2013-05-25 04:12:00,61.0,57.4,25.25,SSW,193,0.0,0.0,88,0.00,,---,0.00,VWS V14.01,2013-05-25 10:12:00,
2013-05-25 04:13:00,61.0,57.4,25.25,SSW,193,0.0,0.0,88,0.00,,---,0.00,VWS V14.01,2013-05-25 10:13:00,
2013-05-25 04:14:00,61.0,57.4,25.25,SSW,193,0.0,0.0,88,0.00,,---,0.00,VWS V14.01,2013-05-25 10:14:00,
2013-05-25 04:15:00,60.8,57.2,25.25,SSW,193,0.0,0.0,88,0.00,,---,0.00,VWS V14.01,2013-05-25 10:15:00,
2013-05-25 04:20:00,60.6,57.4,25.25,SSW,193,0.0,0.0,89,0.00,,---,0.00,VWS V14.01,2013-05-25 10:20:00,
2013-05-25 04:22:00,60.6,57.4,25.25,SSW,193,0.0,0.0,89,0.00,,---,0.00,VWS V14.01,2013-05-25 10:22:00,
2013-05-25 04:25:00,60.6,57.4,25.25,SSW,193,0.0,0.0,89,0.00,,---,0.00,VWS V14.01,2013-05-25 10:25:00,
2013-05-25 04:26:00,60.6,57.4,25.25,SSW,193,0.0,0.0,89,0.00,,---,0.00,VWS V14.01,2013-05-25 10:26:00,
2013-05-25 04:27:00,60.6,57.4,25.25,SSW,193,0.0,0.0,89,0.00,,---,0.00,VWS V14.01,2013-05-25 10:27:00,
2013-05-25 04:29:00,60.4,57.2,25.25,SSW,193,0.0,0.0,89,0.00,,---,0.00,VWS V14.01,2013-05-25 10:29:00,
2013-05-25 04:33:00,60.4,57.2,25.25,SSW,193,0.0,0.0,89,0.00,,---,0.00,VWS V14.01,2013-05-25 10:33:00,
2013-05-25 04:34:00,60.4,57.5,25.25,SSW,193,0.0,0.0,90,0.00,,---,0.00,VWS V14.01,2013-05-25 10:34:00,
2013-05-25 04:35:00,60.4,57.5,25.25,SSW,193,0.0,0.0,90,0.00,,---,0.00,VWS V14.01,2013-05-25 10:35:00,
2013-05-25 04:38:00,60.4,57.5,25.25,SSW,193,0.0,0.0,90,0.00,,---,0.00,VWS V14.01,2013-05-25 10:38:00,
2013-05-25 04:41:00,60.4,57.5,25.25,SSW,193,0.0,0.0,90,0.00,,---,0.00,VWS V14.01,2013-05-25 10:41:00,
2013-05-25 04:42:00,60.4,57.5,25.25,SSW,193,0.0,0.0,90,0.00,,---,0.00,VWS V14.01,2013-05-25 10:42:00,
2013-05-25 04:43:00,60.4,57.5,25.25,SSW,193,0.0,0.0,90,0.00,,---,0.00,VWS V14.01,2013-05-25 10:43:00,
2013-05-25 04:46:00,60.4,57.5,25.25,SSW,193,0.0,0.0,90,0.00,,---,0.00,VWS V14.01,2013-05-25 10:46:00,
2013-05-25 04:50:00,60.4,57.8,25.25,SSW,193,0.0,0.0,91,0.00,,---,0.00,VWS V14.01,2013-05-25 10:50:00,
2013-05-25 04:52:00,60.6,58.0,25.25,SSW,192,0.0,2.7,91,0.00,,---,0.00,VWS V14.01,2013-05-25 10:52:00,
2013-05-25 04:53:00,60.6,58.0,25.25,SSW,192,0.0,0.0,91,0.00,,---,0.00,VWS V14.01,2013-05-25 10:53:00,
2013-05-25 04:54:00,60.6,58.0,25.25,SSW,192,0.0,0.0,91,0.00,,---,0.00,VWS V14.01,2013-05-25 10:54:00,
2013-05-25 04:56:00,60.6,58.0,25.25,SSW,192,0.0,0.0,91,0.00,,---,0.00,VWS V14.01,2013-05-25 10:56:00,
2013-05-25 04:59:00,60.6,58.0,25.25,SSW,192,0.0,0.0,91,0.00,,---,0.00,VWS V14.01,2013-05-25 10:59:00,
2013-05-25 05:00:00,60.6,58.0,25.25,SSW,192,0.0,0.0,91,0.00,,---,0.00,VWS V14.01,2013-05-25 11:00:00,
2013-05-25 05:04:00,60.6,58.0,25.25,SSW,192,0.0,0.0,91,0.00,,---,0.00,VWS V14.01,2013-05-25 11:04:00,
2013-05-25 05:05:00,60.6,58.0,25.25,SSW,192,0.0,0.0,91,0.00,,---,0.00,VWS V14.01,2013-05-25 11:05:00,
2013-05-25 05:06:00,60.6,58.0,25.25,SSW,192,0.0,0.0,91,0.00,,---,0.00,VWS V14.01,2013-05-25 11:06:00,
2013-05-25 05:07:00,60.6,58.0,25.25,SSW,192,0.0,0.0,91,0.00,,---,0.00,VWS V14.01,2013-05-25 11:07:00,
2013-05-25 05:08:00,60.6,58.0,25.25,SSW,192,0.0,0.0,91,0.00,,---,0.00,VWS V14.01,2013-05-25 11:08:00,
2013-05-25 05:11:00,60.8,58.2,25.25,SSW,192,0.0,0.0,91,0.00,,---,0.00,VWS V14.01,2013-05-25 11:11:00,
2013-05-25 05:13:00,60.8,58.2,25.25,SSW,192,0.0,0.0,91,0.00,,---,0.00,VWS V14.01,2013-05-25 11:13:00,
2013-05-25 05:16:00,60.8,58.2,25.25,SSW,192,0.0,0.0,91,0.00,,---,0.00,VWS V14.01,2013-05-25 11:16:00,
2013-05-25 05:18:00,61.0,58.3,25.25,SSW,208,2.7,2.7,91,0.00,,---,0.00,VWS V14.01,2013-05-25 11:18:00,
2013-05-25 05:19:00,61.0,58.3,25.25,SSW,208,2.7,2.7,91,0.00,,---,0.00,VWS V14.01,2013-05-25 11:19:00,
2013-05-25 05:22:00,61.0,58.3,25.25,SSW,209,0.0,0.0,91,0.00,,---,0.00,VWS V14.01,2013-05-25 11:22:00,
2013-05-25 05:25:00,61.0,58.6,25.28,SSW,209,0.0,0.0,92,0.00,,---,0.00,VWS V14.01,2013-05-25 11:25:00,
2013-05-25 05:27:00,61.2,58.5,25.28,SSW,209,0.0,0.0,91,0.00,,---,0.00,VWS V14.01,2013-05-25 11:27:00,
2013-05-25 05:30:00,61.2,58.5,25.28,SSW,209,0.0,0.0,91,0.00,,---,0.00,VWS V14.01,2013-05-25 11:30:00,
2013-05-25 05:32:00,61.2,58.5,25.28,SSW,209,0.0,0.0,91,0.00,,---,0.00,VWS V14.01,2013-05-25 11:32:00,
2013-05-25 05:33:00,61.2,58.5,25.28,SSW,209,0.0,0.0,91,0.00,,---,0.00,VWS V14.01,2013-05-25 11:33:00,
2013-05-25 05:34:00,61.2,58.5,25.28,SSW,209,0.0,0.0,91,0.00,,---,0.00,VWS V14.01,2013-05-25 11:34:00,
2013-05-25 05:38:00,61.2,58.5,25.28,SSW,209,0.0,2.2,91,0.00,,---,0.00,VWS V14.01,2013-05-25 11:38:00,
2013-05-25 05:39:00,61.2,58.5,25.28,SSW,209,0.0,0.0,91,0.00,,---,0.00,VWS V14.01,2013-05-25 11:39:00,
2013-05-25 05:41:00,61.2,58.8,25.28,SSW,209,0.0,0.0,92,0.00,,---,0.00,VWS V14.01,2013-05-25 11:41:00,
2013-05-25 05:42:00,61.2,58.8,25.28,SSW,209,0.0,0.0,92,0.00,,---,0.00,VWS V14.01,2013-05-25 11:42:00,
2013-05-25 05:46:00,61.2,58.8,25.28,SSW,209,0.0,0.0,92,0.00,,---,0.00,VWS V14.01,2013-05-25 11:46:00,
2013-05-25 05:48:00,61.2,58.8,25.28,SSW,209,0.0,0.0,92,0.00,,---,0.00,VWS V14.01,2013-05-25 11:48:00,
2013-05-25 05:52:00,61.3,59.0,25.28,SSW,209,0.0,0.0,92,0.00,,---,0.00,VWS V14.01,2013-05-25 11:52:00,
2013-05-25 05:53:00,61.3,59.0,25.28,SSW,209,0.0,0.0,92,0.00,,---,0.00,VWS V14.01,2013-05-25 11:53:00,
2013-05-25 05:54:00,61.3,59.0,25.28,SSW,209,0.0,0.0,92,0.00,,---,0.00,VWS V14.01,2013-05-25 11:54:00,
2013-05-25 05:56:00,61.3,59.0,25.28,SSW,209,0.0,0.0,92,0.00,,---,0.00,VWS V14.01,2013-05-25 11:56:00,
2013-05-25 05:59:00,61.3,59.0,25.28,SSW,209,0.0,0.0,92,0.00,,---,0.00,VWS V14.01,2013-05-25 11:59:00,
2013-05-25 06:01:00,61.3,59.0,25.28,SSW,209,0.0,0.0,92,0.00,,---,0.00,VWS V14.01,2013-05-25 12:01:00,
2013-05-25 06:02:00,61.3,59.0,25.28,SSW,209,0.0,0.0,92,0.00,,---,0.00,VWS V14.01,2013-05-25 12:02:00,
2013-05-25 06:05:00,61.5,59.2,25.28,SSW,209,0.0,0.0,92,0.00,,---,0.00,VWS V14.01,2013-05-25 12:05:00,
2013-05-25 06:06:00,61.5,59.2,25.28,SSW,209,0.0,0.0,92,0.00,,---,0.00,VWS V14.01,2013-05-25 12:06:00,
2013-05-25 06:09:00,61.5,59.2,25.28,SSW,209,0.0,0.0,92,0.00,,---,0.00,VWS V14.01,2013-05-25 12:09:00,
2013-05-25 06:10:00,61.5,59.2,25.28,SSW,209,0.0,0.0,92,0.00,,---,0.00,VWS V14.01,2013-05-25 12:10:00,
2013-05-25 06:12:00,61.5,59.2,25.28,SSW,209,0.0,0.0,92,0.00,,---,0.00,VWS V14.01,2013-05-25 12:12:00,
2013-05-25 06:13:00,61.5,59.2,25.28,SSW,209,0.0,0.0,92,0.00,,---,0.00,VWS V14.01,2013-05-25 12:13:00,
2013-05-25 06:14:00,61.5,59.2,25.28,SSW,209,0.0,0.0,92,0.00,,---,0.00,VWS V14.01,2013-05-25 12:14:00,
2013-05-25 06:17:00,61.5,59.2,25.28,SSW,209,0.0,0.0,92,0.00,,---,0.00,VWS V14.01,2013-05-25 12:17:00,
2013-05-25 06:19:00,61.5,59.2,25.28,SSW,209,0.0,0.0,92,0.00,,---,0.00,VWS V14.01,2013-05-25 12:19:00,
2013-05-25 06:20:00,61.7,59.4,25.28,SSW,209,0.0,0.0,92,0.00,,---,0.00,VWS V14.01,2013-05-25 12:20:00,
2013-05-25 06:23:00,61.7,59.4,25.28,SSW,209,0.0,0.0,92,0.00,,---,0.00,VWS V14.01,2013-05-25 12:23:00,
2013-05-25 06:24:00,61.7,59.7,25.28,SSW,209,0.0,0.0,93,0.00,,---,0.00,VWS V14.01,2013-05-25 12:24:00,
2013-05-25 06:25:00,61.7,59.7,25.28,SSW,209,0.0,0.0,93,0.00,,---,0.00,VWS V14.01,2013-05-25 12:25:00,
2013-05-25 06:26:00,61.7,59.7,25.28,SSW,209,0.0,0.0,93,0.00,,---,0.00,VWS V14.01,2013-05-25 12:26:00,
2013-05-25 06:30:00,61.7,59.7,25.28,SSW,209,0.0,0.0,93,0.00,,---,0.00,VWS V14.01,2013-05-25 12:30:00,
2013-05-25 06:31:00,61.7,59.7,25.28,SSW,209,0.0,0.0,93,0.00,,---,0.00,VWS V14.01,2013-05-25 12:31:00,
2013-05-25 06:32:00,61.7,59.7,25.28,SSW,209,0.0,0.0,93,0.00,,---,0.00,VWS V14.01,2013-05-25 12:32:00,
2013-05-25 06:34:00,61.9,59.8,25.31,SSW,209,0.0,0.0,93,0.00,,---,0.00,VWS V14.01,2013-05-25 12:34:00,
2013-05-25 06:37:00,61.9,59.8,25.31,SSW,209,0.0,0.0,93,0.00,,---,0.00,VWS V14.01,2013-05-25 12:37:00,
2013-05-25 06:38:00,61.9,59.8,25.31,SSW,209,0.0,0.0,93,0.00,,---,0.00,VWS V14.01,2013-05-25 12:38:00,
2013-05-25 06:39:00,61.9,59.8,25.31,SSW,209,0.0,0.0,93,0.00,,---,0.00,VWS V14.01,2013-05-25 12:39:00,
2013-05-25 06:40:00,61.9,59.8,25.31,SSW,209,0.0,0.0,93,0.00,,---,0.00,VWS V14.01,2013-05-25 12:40:00,
2013-05-25 06:43:00,62.1,60.0,25.31,SSW,209,0.0,0.0,93,0.00,,---,0.00,VWS V14.01,2013-05-25 12:43:00,
2013-05-25 06:44:00,62.1,60.0,25.31,SSW,209,0.0,0.0,93,0.00,,---,0.00,VWS V14.01,2013-05-25 12:44:00,
2013-05-25 06:45:00,62.1,60.0,25.31,SSW,209,0.0,0.0,93,0.00,,---,0.00,VWS V14.01,2013-05-25 12:45:00,
2013-05-25 06:47:00,62.1,60.0,25.31,SSW,209,0.0,0.0,93,0.00,,---,0.00,VWS V14.01,2013-05-25 12:47:00,
2013-05-25 06:48:00,62.1,60.0,25.31,SSW,209,2.7,2.7,93,0.00,,---,0.00,VWS V14.01,2013-05-25 12:48:00,
2013-05-25 06:52:00,62.2,60.2,25.31,SW,218,0.0,0.0,93,0.00,,---,0.00,VWS V14.01,2013-05-25 12:52:00,
2013-05-25 06:53:00,62.2,60.2,25.31,SW,218,0.0,0.0,93,0.00,,---,0.00,VWS V14.01,2013-05-25 12:53:00,
2013-05-25 06:55:00,62.2,60.2,25.31,SW,218,0.0,0.0,93,0.00,,---,0.00,VWS V14.01,2013-05-25 12:55:00,
2013-05-25 06:57:00,62.2,60.2,25.31,SW,218,0.0,0.0,93,0.00,,---,0.00,VWS V14.01,2013-05-25 12:57:00,
2013-05-25 06:58:00,62.2,60.2,25.31,SW,218,0.0,0.0,93,0.00,,---,0.00,VWS V14.01,2013-05-25 12:58:00,
2013-05-25 07:01:00,62.4,60.4,25.31,SW,218,0.0,0.0,93,0.00,,---,0.00,VWS V14.01,2013-05-25 13:01:00,
2013-05-25 07:02:00,62.4,60.4,25.31,SW,218,0.0,0.0,93,0.00,,---,0.00,VWS V14.01,2013-05-25 13:02:00,
2013-05-25 07:05:00,62.6,60.5,25.31,SW,218,0.0,0.0,93,0.00,,---,0.00,VWS V14.01,2013-05-25 13:05:00,
2013-05-25 07:06:00,62.6,60.5,25.31,SW,218,0.0,0.0,93,0.00,,---,0.00,VWS V14.01,2013-05-25 13:06:00,
2013-05-25 07:08:00,62.6,60.5,25.31,SW,218,0.0,0.0,93,0.00,,---,0.00,VWS V14.01,2013-05-25 13:08:00,
2013-05-25 07:10:00,62.8,60.7,25.31,SW,218,0.0,0.0,93,0.00,,---,0.00,VWS V14.01,2013-05-25 13:10:00,
2013-05-25 07:12:00,63.0,60.9,25.31,SW,218,0.0,0.0,93,0.00,,---,0.00,VWS V14.01,2013-05-25 13:12:00,
2013-05-25 07:16:00,63.1,61.1,25.31,SW,218,0.0,0.0,93,0.00,,---,0.00,VWS V14.01,2013-05-25 13:16:00,
2013-05-25 07:17:00,63.1,61.1,25.31,SW,218,0.0,0.0,93,0.00,,---,0.00,VWS V14.01,2013-05-25 13:17:00,
2013-05-25 07:19:00,63.3,61.3,25.31,SW,218,0.0,0.0,93,0.00,,---,0.00,VWS V14.01,2013-05-25 13:19:00,
2013-05-25 07:23:00,63.5,61.4,25.31,SW,218,0.0,0.0,93,0.00,,---,0.00,VWS V14.01,2013-05-25 13:23:00,
2013-05-25 07:24:00,63.7,61.6,25.31,SW,218,0.0,0.0,93,0.00,,---,0.00,VWS V14.01,2013-05-25 13:24:00,
2013-05-25 07:25:00,63.7,61.6,25.31,SW,218,0.0,0.0,93,0.00,,---,0.00,VWS V14.01,2013-05-25 13:25:00,
2013-05-25 07:26:00,63.9,61.8,25.31,SW,218,0.0,0.0,93,0.00,,---,0.00,VWS V14.01,2013-05-25 13:26:00,
2013-05-25 07:30:00,64.0,62.0,25.31,SW,218,0.0,0.0,93,0.00,,---,0.00,VWS V14.01,2013-05-25 13:30:00,
2013-05-25 07:33:00,64.2,62.2,25.31,SW,218,0.0,0.0,93,0.00,,---,0.00,VWS V14.01,2013-05-25 13:33:00,
2013-05-25 07:35:00,64.2,61.8,25.31,SW,218,0.0,0.0,92,0.00,,---,0.00,VWS V14.01,2013-05-25 13:35:00,
2013-05-25 07:36:00,64.4,62.0,25.31,SW,218,2.2,2.2,92,0.00,,---,0.00,VWS V14.01,2013-05-25 13:36:00,
2013-05-25 07:37:00,64.4,62.0,25.31,SW,218,0.0,2.2,92,0.00,,---,0.00,VWS V14.01,2013-05-25 13:37:00,
2013-05-25 07:38:00,64.4,62.0,25.31,West,276,0.0,2.2,92,0.00,,---,0.00,VWS V14.01,2013-05-25 13:38:00,
2013-05-25 07:41:00,64.4,61.7,25.31,West,276,0.0,3.1,91,0.00,,---,0.00,VWS V14.01,2013-05-25 13:41:00,
2013-05-25 07:42:00,64.4,61.7,25.31,West,276,0.0,0.0,91,0.00,,---,0.00,VWS V14.01,2013-05-25 13:42:00,
2013-05-25 07:44:00,64.4,61.7,25.31,West,276,0.0,0.0,91,0.00,,---,0.00,VWS V14.01,2013-05-25 13:44:00,
2013-05-25 07:45:00,64.4,61.7,25.31,West,276,0.0,2.7,91,0.00,,---,0.00,VWS V14.01,2013-05-25 13:45:00,
2013-05-25 07:46:00,64.4,61.7,25.31,West,276,0.0,0.0,91,0.00,,---,0.00,VWS V14.01,2013-05-25 13:46:00,
2013-05-25 07:51:00,64.6,61.9,25.31,West,276,0.0,0.0,91,0.00,,---,0.00,VWS V14.01,2013-05-25 13:51:00,
2013-05-25 07:52:00,64.6,61.6,25.31,West,276,0.0,0.0,90,0.00,,---,0.00,VWS V14.01,2013-05-25 13:52:00,
2013-05-25 07:53:00,64.6,61.6,25.31,West,276,0.0,0.0,90,0.00,,---,0.00,VWS V14.01,2013-05-25 13:53:00,
2013-05-25 07:56:00,64.6,61.3,25.31,West,276,0.0,0.0,89,0.00,,---,0.00,VWS V14.01,2013-05-25 13:56:00,
2013-05-25 07:58:00,64.8,61.1,25.31,West,275,0.0,0.0,88,0.00,,---,0.00,VWS V14.01,2013-05-25 13:58:00,
2013-05-25 07:59:00,64.8,61.1,25.31,West,276,0.0,0.0,88,0.00,,---,0.00,VWS V14.01,2013-05-25 13:59:00,
2013-05-25 08:00:00,64.8,61.1,25.31,West,276,0.0,0.0,88,0.00,,---,0.00,VWS V14.01,2013-05-25 14:00:00,
2013-05-25 08:05:00,65.1,61.5,25.31,West,276,0.0,0.0,88,0.00,,---,0.00,VWS V14.01,2013-05-25 14:05:00,
2013-05-25 08:07:00,65.3,61.7,25.31,West,276,0.0,3.1,88,0.00,,---,0.00,VWS V14.01,2013-05-25 14:07:00,
2013-05-25 08:08:00,65.3,61.7,25.31,West,276,0.0,0.0,88,0.00,,---,0.00,VWS V14.01,2013-05-25 14:08:00,
2013-05-25 08:09:00,65.5,61.5,25.31,West,276,0.0,0.0,87,0.00,,---,0.00,VWS V14.01,2013-05-25 14:09:00,
2013-05-25 08:11:00,65.7,61.7,25.31,West,276,0.0,0.0,87,0.00,,---,0.00,VWS V14.01,2013-05-25 14:11:00,
2013-05-25 08:12:00,65.7,61.7,25.31,West,276,0.0,0.0,87,0.00,,---,0.00,VWS V14.01,2013-05-25 14:12:00,
2013-05-25 08:14:00,66.0,62.0,25.31,West,276,0.0,0.0,87,0.00,,---,0.00,VWS V14.01,2013-05-25 14:14:00,
2013-05-25 08:16:00,66.0,62.0,25.31,West,276,0.0,2.7,87,0.00,,---,0.00,VWS V14.01,2013-05-25 14:16:00,
2013-05-25 08:17:00,66.0,60.4,25.31,East,89,5.4,5.4,82,0.00,,---,0.00,VWS V14.01,2013-05-25 14:17:00,
2013-05-25 08:18:00,66.0,60.0,25.31,East,88,2.7,5.4,81,0.00,,---,0.00,VWS V14.01,2013-05-25 14:18:00,
2013-05-25 08:20:00,66.0,58.2,25.31,East,97,2.7,5.4,76,0.00,,---,0.00,VWS V14.01,2013-05-25 14:20:00,
2013-05-25 08:21:00,66.0,57.5,25.31,ENE,75,3.1,3.6,74,0.00,,---,0.00,VWS V14.01,2013-05-25 14:21:00,
2013-05-25 08:23:00,66.0,57.1,25.31,ESE,102,3.1,4.9,73,0.00,,---,0.00,VWS V14.01,2013-05-25 14:23:00,
2013-05-25 08:24:00,66.0,57.1,25.31,ESE,108,0.0,3.1,73,0.00,,---,0.00,VWS V14.01,2013-05-25 14:24:00,
2013-05-25 08:25:00,65.8,57.0,25.31,East,86,5.4,5.4,73,0.00,,---,0.00,VWS V14.01,2013-05-25 14:25:00,
2013-05-25 08:29:00,65.8,56.6,25.31,NE,49,0.0,4.9,72,0.00,,---,0.00,VWS V14.01,2013-05-25 14:29:00,
2013-05-25 08:30:00,65.8,56.6,25.31,NE,49,0.0,0.0,72,0.00,,---,0.00,VWS V14.01,2013-05-25 14:30:00,
2013-05-25 08:32:00,65.8,57.0,25.31,ENE,61,2.7,2.7,73,0.00,,---,0.00,VWS V14.01,2013-05-25 14:32:00,
2013-05-25 08:33:00,66.0,57.1,25.31,East,80,0.0,3.1,73,0.00,,---,0.00,VWS V14.01,2013-05-25 14:33:00,
2013-05-25 08:35:00,66.0,57.1,25.31,East,80,0.0,0.0,73,0.00,,---,0.00,VWS V14.01,2013-05-25 14:35:00,
2013-05-25 08:36:00,66.2,57.3,25.31,East,80,0.0,0.0,73,0.00,,---,0.00,VWS V14.01,2013-05-25 14:36:00,
2013-05-25 08:39:00,66.6,57.7,25.31,East,80,0.0,0.0,73,0.00,,---,0.00,VWS V14.01,2013-05-25 14:39:00,
2013-05-25 08:40:00,66.7,57.8,25.31,East,80,0.0,0.0,73,0.00,,---,0.00,VWS V14.01,2013-05-25 14:40:00,
2013-05-25 08:42:00,66.9,58.0,25.31,East,80,0.0,0.0,73,0.00,,---,0.00,VWS V14.01,2013-05-25 14:42:00,
2013-05-25 08:44:00,67.3,58.0,25.31,East,80,0.0,0.0,72,0.00,,---,0.00,VWS V14.01,2013-05-25 14:44:00,
2013-05-25 08:46:00,67.6,58.3,25.31,East,80,0.0,0.0,72,0.00,,---,0.00,VWS V14.01,2013-05-25 14:46:00,
2013-05-25 08:47:00,67.6,58.3,25.31,East,80,0.0,0.0,72,0.00,,---,0.00,VWS V14.01,2013-05-25 14:47:00,
2013-05-25 08:51:00,68.2,57.6,25.31,East,80,0.0,0.0,69,0.00,,---,0.00,VWS V14.01,2013-05-25 14:51:00,
2013-05-25 08:53:00,68.2,57.2,25.34,ENE,78,2.7,2.7,68,0.00,,---,0.00,VWS V14.01,2013-05-25 14:53:00,
2013-05-25 08:54:00,68.2,56.8,25.34,ENE,78,0.0,2.7,67,0.00,,---,0.00,VWS V14.01,2013-05-25 14:54:00,
2013-05-25 08:56:00,68.2,56.8,25.34,ENE,78,0.0,0.0,67,0.00,,---,0.00,VWS V14.01,2013-05-25 14:56:00,
2013-05-25 08:57:00,68.2,56.8,25.34,ENE,78,0.0,0.0,67,0.00,,---,0.00,VWS V14.01,2013-05-25 14:57:00,
2013-05-25 08:58:00,68.2,56.8,25.34,ENE,78,0.0,0.0,67,0.00,,---,0.00,VWS V14.01,2013-05-25 14:58:00,
2013-05-25 08:59:00,68.4,57.4,25.34,ENE,78,0.0,0.0,68,0.00,,---,0.00,VWS V14.01,2013-05-25 14:59:00,
2013-05-25 09:04:00,68.9,57.9,25.34,ENE,78,0.0,0.0,68,0.00,,---,0.00,VWS V14.01,2013-05-25 15:04:00,
2013-05-25 09:05:00,68.9,57.9,25.34,ENE,78,2.7,2.7,68,0.00,,---,0.00,VWS V14.01,2013-05-25 15:05:00,
2013-05-25 09:11:00,68.9,55.8,25.34,NE,44,2.7,4.9,63,0.00,,---,0.00,VWS V14.01,2013-05-25 15:11:00,
2013-05-25 09:12:00,68.9,56.2,25.34,ENE,68,3.1,3.1,64,0.00,,---,0.00,VWS V14.01,2013-05-25 15:12:00,
2013-05-25 09:15:00,68.7,56.1,25.34,NE,41,3.1,4.0,64,0.00,,---,0.00,VWS V14.01,2013-05-25 15:15:00,
2013-05-25 09:17:00,68.5,55.9,25.34,SE,127,3.6,6.3,64,0.00,,---,0.00,VWS V14.01,2013-05-25 15:17:00,
2013-05-25 09:18:00,68.5,56.3,25.34,ESE,106,6.3,6.3,65,0.00,,---,0.00,VWS V14.01,2013-05-25 15:18:00,
2013-05-25 09:19:00,68.4,56.2,25.34,East,92,3.1,6.3,65,0.00,,---,0.00,VWS V14.01,2013-05-25 15:19:00,
2013-05-25 09:20:00,68.2,56.0,25.34,East,88,5.4,5.4,65,0.00,,---,0.00,VWS V14.01,2013-05-25 15:20:00,
2013-05-25 09:24:00,68.0,55.8,25.34,East,81,2.2,3.6,65,0.00,,---,0.00,VWS V14.01,2013-05-25 15:24:00,
2013-05-25 09:25:00,68.0,56.2,25.34,East,82,2.7,4.0,66,0.00,,---,0.00,VWS V14.01,2013-05-25 15:25:00,
2013-05-25 09:26:00,68.0,56.7,25.34,NE,55,4.0,4.0,67,0.00,,---,0.00,VWS V14.01,2013-05-25 15:26:00,
2013-05-25 09:27:00,68.0,56.7,25.34,East,83,4.0,5.4,67,0.00,,---,0.00,VWS V14.01,2013-05-25 15:27:00,
2013-05-25 09:30:00,68.2,56.8,25.34,ENE,60,4.0,5.4,67,0.00,,---,0.00,VWS V14.01,2013-05-25 15:30:00,
2013-05-25 09:31:00,68.2,56.4,25.34,East,90,5.8,8.1,66,0.00,,---,0.00,VWS V14.01,2013-05-25 15:31:00,
2013-05-25 09:32:00,68.2,56.4,25.34,ENE,76,5.4,5.8,66,0.00,,---,0.00,VWS V14.01,2013-05-25 15:32:00,
2013-05-25 09:33:00,68.2,56.4,25.34,East,83,6.3,6.3,66,0.00,,---,0.00,VWS V14.01,2013-05-25 15:33:00,
2013-05-25 09:35:00,68.2,56.8,25.34,ESE,114,6.3,6.7,67,0.00,,---,0.00,VWS V14.01,2013-05-25 15:35:00,
2013-05-25 09:36:00,68.2,56.8,25.34,East,82,2.7,6.3,67,0.00,,---,0.00,VWS V14.01,2013-05-25 15:36:00,
2013-05-25 09:38:00,68.2,56.0,25.34,ESE,109,11.0,11.0,65,0.00,,---,0.00,VWS V14.01,2013-05-25 15:38:00,
2013-05-25 09:39:00,68.2,55.5,25.34,East,80,5.8,11.0,64,0.00,,---,0.00,VWS V14.01,2013-05-25 15:39:00,
2013-05-25 09:40:00,68.2,55.5,25.34,East,94,8.1,8.3,64,0.00,,---,0.00,VWS V14.01,2013-05-25 15:40:00,
2013-05-25 09:43:00,68.2,56.0,25.34,East,87,5.4,8.7,65,0.00,,---,0.00,VWS V14.01,2013-05-25 15:43:00,
2013-05-25 09:44:00,68.2,56.4,25.34,ESE,113,7.2,7.2,66,0.00,,---,0.00,VWS V14.01,2013-05-25 15:44:00,
2013-05-25 09:45:00,68.0,56.2,25.34,East,87,5.4,11.0,66,0.00,,---,0.00,VWS V14.01,2013-05-25 15:45:00,
2013-05-25 09:48:00,68.0,56.7,25.34,ESE,121,3.1,6.3,67,0.00,,---,0.00,VWS V14.01,2013-05-25 15:48:00,
2013-05-25 09:50:00,68.2,56.4,25.34,East,99,5.8,10.5,66,0.00,,---,0.00,VWS V14.01,2013-05-25 15:50:00,
2013-05-25 09:52:00,68.2,56.4,25.34,ESE,115,6.3,8.3,66,0.00,,---,0.00,VWS V14.01,2013-05-25 15:52:00,
2013-05-25 09:54:00,68.2,56.4,25.34,East,79,7.2,7.2,66,0.00,,---,0.00,VWS V14.01,2013-05-25 15:54:00,
2013-05-25 09:56:00,68.2,56.8,25.34,ESE,120,4.0,8.1,67,0.00,,---,0.00,VWS V14.01,2013-05-25 15:56:00,
2013-05-25 09:57:00,68.2,56.4,25.34,ESE,105,6.3,9.6,66,0.00,,---,0.00,VWS V14.01,2013-05-25 15:57:00,
2013-05-25 09:58:00,68.2,56.4,25.34,East,88,5.4,6.3,66,0.00,,---,0.00,VWS V14.01,2013-05-25 15:58:00,
2013-05-25 10:01:00,68.2,56.4,25.34,NE,51,7.6,7.6,66,0.00,,---,0.00,VWS V14.01,2013-05-25 16:01:00,
2013-05-25 10:02:00,68.2,56.4,25.34,East,89,3.6,7.6,66,0.00,,---,0.00,VWS V14.01,2013-05-25 16:02:00,
2013-05-25 10:03:00,68.2,56.4,25.34,SE,124,4.0,4.0,66,0.00,,---,0.00,VWS V14.01,2013-05-25 16:03:00,
2013-05-25 10:04:00,68.4,56.6,25.34,East,97,3.6,5.8,66,0.00,,---,0.00,VWS V14.01,2013-05-25 16:04:00,
2013-05-25 10:08:00,68.4,56.6,25.34,East,98,5.4,6.3,66,0.00,,---,0.00,VWS V14.01,2013-05-25 16:08:00,
2013-05-25 10:09:00,68.2,56.4,25.34,ENE,76,4.0,8.1,66,0.00,,---,0.00,VWS V14.01,2013-05-25 16:09:00,
2013-05-25 10:11:00,68.2,56.4,25.34,East,93,4.0,7.6,66,0.00,,---,0.00,VWS V14.01,2013-05-25 16:11:00,
2013-05-25 10:13:00,68.2,56.4,25.34,ESE,109,2.7,5.4,66,0.00,,---,0.00,VWS V14.01,2013-05-25 16:13:00,
2013-05-25 10:15:00,68.2,56.4,25.34,NNE,25,5.8,6.3,66,0.00,,---,0.00,VWS V14.01,2013-05-25 16:15:00,
2013-05-25 10:16:00,68.2,56.0,25.34,ENE,78,6.3,6.3,65,0.00,,---,0.00,VWS V14.01,2013-05-25 16:16:00,
2013-05-25 10:17:00,68.2,56.0,25.34,East,85,4.0,6.3,65,0.00,,---,0.00,VWS V14.01,2013-05-25 16:17:00,
2013-05-25 10:19:00,68.2,56.0,25.34,East,81,5.4,5.4,65,0.00,,---,0.00,VWS V14.01,2013-05-25 16:19:00,
2013-05-25 10:20:00,68.0,55.8,25.34,NNW,344,8.7,8.7,65,0.00,,---,0.00,VWS V14.01,2013-05-25 16:20:00,
2013-05-25 10:21:00,68.2,56.4,25.34,ENE,71,7.6,8.7,66,0.00,,---,0.00,VWS V14.01,2013-05-25 16:21:00,
2013-05-25 10:23:00,68.2,56.4,25.34,East,95,4.9,5.8,66,0.00,,---,0.00,VWS V14.01,2013-05-25 16:23:00,
2013-05-25 10:25:00,68.0,55.8,25.34,NE,55,7.2,7.2,65,0.00,,---,0.00,VWS V14.01,2013-05-25 16:25:00,
2013-05-25 10:26:00,68.0,56.2,25.34,ENE,61,5.8,7.2,66,0.00,,---,0.00,VWS V14.01,2013-05-25 16:26:00,
2013-05-25 10:31:00,68.0,56.2,25.34,ENE,65,4.0,5.8,66,0.00,,---,0.00,VWS V14.01,2013-05-25 16:31:00,
2013-05-25 10:32:00,68.0,56.2,25.34,ENE,63,3.6,4.9,66,0.00,,---,0.00,VWS V14.01,2013-05-25 16:32:00,
2013-05-25 10:34:00,68.0,56.7,25.34,East,90,8.3,8.3,67,0.00,,---,0.00,VWS V14.01,2013-05-25 16:34:00,
2013-05-25 10:36:00,68.0,56.7,25.34,SE,137,3.6,4.0,67,0.00,,---,0.00,VWS V14.01,2013-05-25 16:36:00,
2013-05-25 10:37:00,68.0,57.1,25.34,ESE,116,3.1,3.6,68,0.00,,---,0.00,VWS V14.01,2013-05-25 16:37:00,
2013-05-25 10:41:00,68.0,57.1,25.34,ENE,69,5.4,5.4,68,0.00,,---,0.00,VWS V14.01,2013-05-25 16:41:00,
2013-05-25 10:42:00,68.2,57.6,25.34,NE,41,3.1,5.4,69,0.00,,---,0.00,VWS V14.01,2013-05-25 16:42:00,
2013-05-25 10:45:00,68.0,57.5,25.34,East,84,6.3,6.3,69,0.00,,---,0.00,VWS V14.01,2013-05-25 16:45:00,
2013-05-25 10:48:00,68.0,57.5,25.34,SSE,154,6.7,6.7,69,0.00,,---,0.00,VWS V14.01,2013-05-25 16:48:00,
2013-05-25 10:50:00,68.0,57.5,25.34,ENE,57,8.1,8.1,69,0.00,,---,0.00,VWS V14.01,2013-05-25 16:50:00,
2013-05-25 10:52:00,68.0,57.1,25.34,ENE,75,3.1,5.4,68,0.00,,---,0.00,VWS V14.01,2013-05-25 16:52:00,
2013-05-25 10:54:00,68.0,57.1,25.34,ESE,111,3.1,3.6,68,0.00,,---,0.00,VWS V14.01,2013-05-25 16:54:00,
2013-05-25 10:56:00,68.0,57.1,25.34,East,97,4.0,5.4,68,0.00,,---,0.00,VWS V14.01,2013-05-25 16:56:00,
2013-05-25 10:57:00,68.4,57.8,25.34,ESE,102,3.1,4.0,69,0.00,,---,0.00,VWS V14.01,2013-05-25 16:57:00,
2013-05-25 10:58:00,68.5,58.4,25.34,East,89,3.1,3.1,70,0.00,,---,0.00,VWS V14.01,2013-05-25 16:58:00,
2013-05-25 11:03:00,68.9,55.4,25.31,SE,132,4.0,5.8,62,0.00,,---,0.00,VWS V14.01,2013-05-25 17:03:00,
2013-05-25 11:04:00,69.1,56.0,25.31,ESE,109,5.4,5.4,63,0.00,,---,0.00,VWS V14.01,2013-05-25 17:04:00,
2013-05-25 11:05:00,69.1,56.0,25.31,ENE,74,5.8,5.8,63,0.00,,---,0.00,VWS V14.01,2013-05-25 17:05:00,
2013-05-25 11:06:00,69.1,56.0,25.31,NE,39,4.0,5.8,63,0.00,,---,0.00,VWS V14.01,2013-05-25 17:06:00,
2013-05-25 11:11:00,69.3,55.7,25.31,ENE,66,6.3,6.3,62,0.00,,---,0.00,VWS V14.01,2013-05-25 17:11:00,
2013-05-25 11:12:00,69.3,55.7,25.31,NE,56,6.3,6.3,62,0.00,,---,0.00,VWS V14.01,2013-05-25 17:12:00,
2013-05-25 11:15:00,69.3,55.7,25.31,East,97,3.6,5.8,62,0.00,,---,0.00,VWS V14.01,2013-05-25 17:15:00,
2013-05-25 11:16:00,69.3,55.7,25.31,NE,47,4.0,4.0,62,0.00,,---,0.00,VWS V14.01,2013-05-25 17:16:00,
2013-05-25 11:17:00,69.3,55.7,25.31,NE,48,5.8,5.8,62,0.00,,---,0.00,VWS V14.01,2013-05-25 17:17:00,
2013-05-25 11:18:00,69.8,54.8,25.31,ESE,121,7.6,7.6,59,0.00,,---,0.00,VWS V14.01,2013-05-25 17:18:00,
2013-05-25 11:20:00,70.0,54.1,25.31,ESE,106,3.1,6.3,57,0.00,,---,0.00,VWS V14.01,2013-05-25 17:20:00,
2013-05-25 11:22:00,70.3,56.3,25.31,SE,127,5.4,5.8,61,0.00,,---,0.00,VWS V14.01,2013-05-25 17:22:00,
2013-05-25 11:23:00,70.3,56.3,25.31,SE,127,5.4,5.4,61,0.00,,---,0.00,VWS V14.01,2013-05-25 17:23:00,
2013-05-25 11:25:00,70.5,55.5,25.31,East,90,3.6,4.0,59,0.00,,---,0.00,VWS V14.01,2013-05-25 17:25:00,
2013-05-25 11:27:00,71.1,54.6,25.31,East,92,5.8,8.1,56,0.00,,---,0.00,VWS V14.01,2013-05-25 17:27:00,
2013-05-25 11:28:00,71.1,53.6,25.31,East,91,9.2,9.2,54,0.00,,---,0.00,VWS V14.01,2013-05-25 17:28:00,
2013-05-25 11:29:00,71.2,53.8,25.31,SE,135,3.1,9.2,54,0.00,,---,0.00,VWS V14.01,2013-05-25 17:29:00,
2013-05-25 11:30:00,71.2,53.8,25.31,East,100,6.7,6.7,54,0.00,,---,0.00,VWS V14.01,2013-05-25 17:30:00,
2013-05-25 11:34:00,71.2,51.7,25.31,ENE,59,7.6,8.7,50,0.00,,---,0.00,VWS V14.01,2013-05-25 17:34:00,
2013-05-25 11:35:00,71.2,52.7,25.31,SE,140,5.4,7.6,52,0.00,,---,0.00,VWS V14.01,2013-05-25 17:35:00,
2013-05-25 11:40:00,71.4,54.4,25.31,NNE,31,4.0,5.8,55,0.00,,---,0.00,VWS V14.01,2013-05-25 17:40:00,
2013-05-25 11:41:00,71.4,54.4,25.31,North,6,6.3,6.3,55,0.00,,---,0.00,VWS V14.01,2013-05-25 17:41:00,
2013-05-25 11:42:00,71.4,54.4,25.31,ENE,77,5.4,6.3,55,0.00,,---,0.00,VWS V14.01,2013-05-25 17:42:00,
2013-05-25 11:45:00,71.8,54.3,25.31,ESE,107,5.8,5.8,54,0.00,,---,0.00,VWS V14.01,2013-05-25 17:45:00,
2013-05-25 11:47:00,72.1,53.0,25.28,ENE,76,3.6,5.4,51,0.00,,---,0.00,VWS V14.01,2013-05-25 17:47:00,
2013-05-25 11:49:00,72.1,53.6,25.28,ENE,77,5.4,5.4,52,0.00,,---,0.00,VWS V14.01,2013-05-25 17:49:00,
2013-05-25 11:50:00,72.1,54.6,25.28,East,85,4.9,5.4,54,0.00,,---,0.00,VWS V14.01,2013-05-25 17:50:00,
2013-05-25 11:51:00,72.1,54.6,25.28,NNW,334,4.0,4.9,54,0.00,,---,0.00,VWS V14.01,2013-05-25 17:51:00,
2013-05-25 11:53:00,72.3,54.2,25.28,ENE,78,2.7,3.6,53,0.00,,---,0.00,VWS V14.01,2013-05-25 17:53:00,
2013-05-25 11:56:00,72.1,53.6,25.28,ESE,108,6.3,6.3,52,0.00,,---,0.00,VWS V14.01,2013-05-25 17:56:00,
2013-05-25 11:58:00,72.1,53.6,25.28,ENE,62,4.0,4.0,52,0.00,,---,0.00,VWS V14.01,2013-05-25 17:58:00,
2013-05-25 12:00:00,72.1,53.6,25.28,ESE,119,4.9,8.1,52,0.00,,---,0.00,VWS V14.01,2013-05-25 18:00:00,
2013-05-25 12:02:00,72.1,54.6,25.28,East,92,5.8,5.8,54,0.00,,---,0.00,VWS V14.01,2013-05-25 18:02:00,
2013-05-25 12:03:00,72.1,54.6,25.28,SE,140,3.6,5.8,54,0.00,,---,0.00,VWS V14.01,2013-05-25 18:03:00,
2013-05-25 12:06:00,72.1,53.0,25.28,SSE,149,0.0,5.8,51,0.00,,---,0.00,VWS V14.01,2013-05-25 18:06:00,
2013-05-25 12:07:00,72.1,53.0,25.28,East,82,4.0,4.0,51,0.00,,---,0.00,VWS V14.01,2013-05-25 18:07:00,
2013-05-25 12:08:00,72.1,53.0,25.28,SE,146,2.7,4.9,51,0.00,,---,0.00,VWS V14.01,2013-05-25 18:08:00,
2013-05-25 12:12:00,71.8,52.7,25.28,ENE,66,5.8,6.3,51,0.00,,---,0.00,VWS V14.01,2013-05-25 18:12:00,
2013-05-25 12:13:00,71.8,53.2,25.28,East,97,3.1,5.8,52,0.00,,---,0.00,VWS V14.01,2013-05-25 18:13:00,
2013-05-25 12:14:00,71.6,53.1,25.28,SE,136,4.0,4.0,52,0.00,,---,0.00,VWS V14.01,2013-05-25 18:14:00,
2013-05-25 12:16:00,71.6,52.5,25.28,SSE,151,5.4,5.4,51,0.00,,---,0.00,VWS V14.01,2013-05-25 18:16:00,
2013-05-25 12:17:00,71.6,52.0,25.28,SE,137,4.0,5.4,50,0.00,,---,0.00,VWS V14.01,2013-05-25 18:17:00,
2013-05-25 12:19:00,71.4,53.4,25.28,NE,51,5.4,5.4,53,0.00,,---,0.00,VWS V14.01,2013-05-25 18:19:00,
2013-05-25 12:22:00,71.4,52.4,25.28,East,100,6.3,6.3,51,0.00,,---,0.00,VWS V14.01,2013-05-25 18:22:00,
2013-05-25 12:23:00,71.6,53.6,25.28,East,79,5.8,6.3,53,0.00,,---,0.00,VWS V14.01,2013-05-25 18:23:00,
2013-05-25 12:24:00,71.4,53.4,25.28,East,79,5.8,5.8,53,0.00,,---,0.00,VWS V14.01,2013-05-25 18:24:00,
2013-05-25 12:25:00,71.4,53.4,25.28,WNW,301,4.9,5.8,53,0.00,,---,0.00,VWS V14.01,2013-05-25 18:25:00,
2013-05-25 12:29:00,71.4,52.9,25.28,ENE,57,3.1,4.0,52,0.00,,---,0.00,VWS V14.01,2013-05-25 18:29:00,
2013-05-25 12:30:00,71.6,53.6,25.28,ENE,70,2.2,3.1,53,0.00,,---,0.00,VWS V14.01,2013-05-25 18:30:00,
2013-05-25 12:31:00,71.6,53.6,25.28,ENE,70,0.0,2.2,53,0.00,,---,0.00,VWS V14.01,2013-05-25 18:31:00,
2013-05-25 12:32:00,71.6,53.6,25.28,ENE,65,0.0,0.0,53,0.00,,---,0.00,VWS V14.01,2013-05-25 18:32:00,
2013-05-25 12:33:00,71.6,53.6,25.28,ENE,66,0.0,0.0,53,0.00,,---,0.00,VWS V14.01,2013-05-25 18:33:00,
2013-05-25 12:34:00,72.3,54.8,25.28,ESE,121,2.7,2.7,54,0.00,,---,0.00,VWS V14.01,2013-05-25 18:34:00,
2013-05-25 12:37:00,72.9,53.2,25.28,SSE,152,3.6,3.6,50,0.00,,---,0.00,VWS V14.01,2013-05-25 18:37:00,
2013-05-25 12:39:00,73.2,52.4,25.28,SSE,152,4.0,4.0,48,0.00,,---,0.00,VWS V14.01,2013-05-25 18:39:00,
2013-05-25 12:40:00,73.2,52.4,25.28,SE,143,3.1,4.0,48,0.00,,---,0.00,VWS V14.01,2013-05-25 18:40:00,
2013-05-25 12:43:00,73.4,52.0,25.28,SE,129,5.4,5.4,47,0.00,,---,0.00,VWS V14.01,2013-05-25 18:43:00,
2013-05-25 12:44:00,73.4,52.0,25.28,SE,131,6.3,8.1,47,0.00,,---,0.00,VWS V14.01,2013-05-25 18:44:00,
2013-05-25 12:46:00,73.4,49.6,25.28,NE,51,5.8,8.1,43,0.00,,---,0.00,VWS V14.01,2013-05-25 18:46:00,
2013-05-25 12:47:00,73.2,50.0,25.28,ESE,105,4.0,5.8,44,0.00,,---,0.00,VWS V14.01,2013-05-25 18:47:00,
2013-05-25 12:49:00,73.2,50.0,25.28,East,91,3.6,5.8,44,0.00,,---,0.00,VWS V14.01,2013-05-25 18:49:00,
2013-05-25 12:50:00,72.9,50.3,25.28,SE,144,3.1,3.6,45,0.00,,---,0.00,VWS V14.01,2013-05-25 18:50:00,
2013-05-25 12:51:00,72.9,50.3,25.28,SSE,153,5.8,5.8,45,0.00,,---,0.00,VWS V14.01,2013-05-25 18:51:00,
2013-05-25 12:52:00,72.9,50.3,25.28,NE,46,3.6,5.8,45,0.00,,---,0.00,VWS V14.01,2013-05-25 18:52:00,
2013-05-25 12:57:00,72.9,51.5,25.28,East,98,2.7,2.7,47,0.00,,---,0.00,VWS V14.01,2013-05-25 18:57:00,
2013-05-25 12:58:00,72.9,51.5,25.28,East,98,2.7,2.7,47,0.00,,---,0.00,VWS V14.01,2013-05-25 18:58:00,
2013-05-25 13:01:00,73.0,51.6,25.28,North,357,2.7,2.7,47,0.00,,---,0.00,VWS V14.01,2013-05-25 19:01:00,
2013-05-25 13:04:00,73.2,52.4,25.28,NE,34,3.6,4.9,48,0.00,,---,0.00,VWS V14.01,2013-05-25 19:04:00,
2013-05-25 13:06:00,73.2,52.4,25.28,SE,133,3.1,5.8,48,0.00,,---,0.00,VWS V14.01,2013-05-25 19:06:00,
2013-05-25 13:09:00,73.4,50.8,25.28,ESE,108,4.9,6.3,45,0.00,,---,0.00,VWS V14.01,2013-05-25 19:09:00,
2013-05-25 13:10:00,73.4,50.8,25.28,East,100,3.6,4.9,45,0.00,,---,0.00,VWS V14.01,2013-05-25 19:10:00,
2013-05-25 13:14:00,73.0,52.2,25.28,ESE,107,5.8,5.8,48,0.00,,---,0.00,VWS V14.01,2013-05-25 19:14:00,
2013-05-25 13:15:00,73.0,52.2,25.28,NE,55,4.9,5.8,48,0.00,,---,0.00,VWS V14.01,2013-05-25 19:15:00,
2013-05-25 13:16:00,72.9,51.5,25.28,East,100,6.3,6.3,47,0.00,,---,0.00,VWS V14.01,2013-05-25 19:16:00,
2013-05-25 13:18:00,72.7,51.3,25.28,East,91,2.7,6.3,47,0.00,,---,0.00,VWS V14.01,2013-05-25 19:18:00,
2013-05-25 13:19:00,72.7,51.3,25.28,NNE,23,3.1,4.0,47,0.00,,---,0.00,VWS V14.01,2013-05-25 19:19:00,
2013-05-25 13:20:00,72.7,51.3,25.28,NE,37,3.6,3.6,47,0.00,,---,0.00,VWS V14.01,2013-05-25 19:20:00,
2013-05-25 13:21:00,72.5,53.9,25.25,ENE,58,2.2,3.6,52,0.00,,---,0.00,VWS V14.01,2013-05-25 19:21:00,
2013-05-25 13:23:00,72.5,53.4,25.25,ENE,58,2.2,2.2,51,0.00,,---,0.00,VWS V14.01,2013-05-25 19:23:00,
2013-05-25 13:25:00,72.5,53.9,25.25,SE,141,7.6,7.6,52,0.00,,---,0.00,VWS V14.01,2013-05-25 19:25:00,
2013-05-25 13:26:00,72.5,53.9,25.25,ENE,58,3.6,7.6,52,0.00,,---,0.00,VWS V14.01,2013-05-25 19:26:00,
2013-05-25 13:28:00,72.5,52.3,25.25,East,85,3.1,4.9,49,0.00,,---,0.00,VWS V14.01,2013-05-25 19:28:00,
2013-05-25 13:30:00,72.5,52.3,25.25,ESE,122,3.6,5.4,49,0.00,,---,0.00,VWS V14.01,2013-05-25 19:30:00,
2013-05-25 13:31:00,72.3,52.1,25.25,ENE,77,4.0,4.9,49,0.00,,---,0.00,VWS V14.01,2013-05-25 19:31:00,
2013-05-25 13:33:00,72.3,52.1,25.25,ENE,60,3.1,3.6,49,0.00,,---,0.00,VWS V14.01,2013-05-25 19:33:00,
2013-05-25 13:36:00,72.3,54.8,25.25,NW,318,0.0,3.1,54,0.00,,---,0.00,VWS V14.01,2013-05-25 19:36:00,
2013-05-25 13:37:00,72.3,54.8,25.25,NE,40,3.6,3.6,54,0.00,,---,0.00,VWS V14.01,2013-05-25 19:37:00,
2013-05-25 13:39:00,72.5,55.9,25.25,NW,317,5.4,5.4,56,0.00,,---,0.00,VWS V14.01,2013-05-25 19:39:00,
2013-05-25 13:40:00,72.5,55.9,25.25,NW,308,0.0,5.4,56,0.00,,---,0.00,VWS V14.01,2013-05-25 19:40:00,
2013-05-25 13:41:00,72.5,55.9,25.25,NW,308,2.7,2.7,56,0.00,,---,0.00,VWS V14.01,2013-05-25 19:41:00,
2013-05-25 13:43:00,72.3,55.8,25.25,NW,325,0.0,3.1,56,0.00,,---,0.00,VWS V14.01,2013-05-25 19:43:00,
2013-05-25 13:46:00,72.7,56.6,25.25,NNE,33,2.7,3.1,57,0.00,,---,0.00,VWS V14.01,2013-05-25 19:46:00,
2013-05-25 13:47:00,72.7,56.6,25.25,ENE,57,4.0,4.0,57,0.00,,---,0.00,VWS V14.01,2013-05-25 19:47:00,
2013-05-25 13:48:00,72.7,56.6,25.25,ENE,57,4.0,4.0,57,0.00,,---,0.00,VWS V14.01,2013-05-25 19:48:00,
2013-05-25 13:50:00,72.7,56.6,25.25,NNE,31,3.6,3.6,57,0.00,,---,0.00,VWS V14.01,2013-05-25 19:50:00,
2013-05-25 13:51:00,72.7,58.5,25.25,ENE,58,3.1,3.6,61,0.00,,---,0.00,VWS V14.01,2013-05-25 19:51:00,
2013-05-25 13:55:00,72.5,58.3,25.25,NW,318,3.1,4.0,61,0.00,,---,0.00,VWS V14.01,2013-05-25 19:55:00,
2013-05-25 13:57:00,72.3,58.1,25.25,NW,319,0.0,2.2,61,0.00,,---,0.00,VWS V14.01,2013-05-25 19:57:00,
2013-05-25 13:59:00,72.3,58.1,25.25,NW,314,2.7,4.0,61,0.00,,---,0.00,VWS V14.01,2013-05-25 19:59:00,
2013-05-25 14:00:00,72.1,57.0,25.25,NW,314,0.0,2.7,59,0.00,,---,0.00,VWS V14.01,2013-05-25 20:00:00,
2013-05-25 14:01:00,72.1,57.0,25.25,NW,314,2.7,2.7,59,0.00,,---,0.00,VWS V14.01,2013-05-25 20:01:00,
2013-05-25 14:03:00,72.0,57.8,25.25,NW,314,0.0,0.0,61,0.00,,---,0.00,VWS V14.01,2013-05-25 20:03:00,
2013-05-25 14:04:00,72.0,57.8,25.25,NW,314,0.0,2.2,61,0.00,,---,0.00,VWS V14.01,2013-05-25 20:04:00,
2013-05-25 14:06:00,72.0,57.8,25.25,NW,314,0.0,2.7,61,0.00,,---,0.00,VWS V14.01,2013-05-25 20:06:00,
2013-05-25 14:07:00,72.0,57.8,25.25,NW,314,0.0,0.0,61,0.00,,---,0.00,VWS V14.01,2013-05-25 20:07:00,
2013-05-25 14:09:00,72.0,57.3,25.25,NW,318,2.7,2.7,60,0.00,,---,0.00,VWS V14.01,2013-05-25 20:09:00,
2013-05-25 14:10:00,72.0,57.3,25.25,NNW,330,3.6,4.9,60,0.00,,---,0.00,VWS V14.01,2013-05-25 20:10:00,
2013-05-25 14:12:00,71.8,57.2,25.25,NNW,336,0.0,2.7,60,0.00,,---,0.00,VWS V14.01,2013-05-25 20:12:00,
2013-05-25 14:14:00,71.8,57.6,25.25,NW,326,4.0,4.0,61,0.00,,---,0.00,VWS V14.01,2013-05-25 20:14:00,
2013-05-25 14:15:00,71.8,57.6,25.25,NNW,329,0.0,4.0,61,0.00,,---,0.00,VWS V14.01,2013-05-25 20:15:00,
2013-05-25 14:16:00,71.8,57.6,25.25,NE,49,2.7,3.1,61,0.00,,---,0.00,VWS V14.01,2013-05-25 20:16:00,
2013-05-25 14:18:00,71.8,57.6,25.25,North,0,0.0,2.7,61,0.00,,---,0.00,VWS V14.01,2013-05-25 20:18:00,
2013-05-25 14:21:00,71.8,57.6,25.25,North,0,2.2,2.2,61,0.00,,---,0.00,VWS V14.01,2013-05-25 20:21:00,
2013-05-25 14:22:00,71.8,58.1,25.25,ESE,103,3.1,3.6,62,0.00,,---,0.00,VWS V14.01,2013-05-25 20:22:00,
2013-05-25 14:23:00,71.8,58.1,25.25,NE,39,2.7,4.0,62,0.00,,---,0.00,VWS V14.01,2013-05-25 20:23:00,
2013-05-25 14:24:00,71.8,57.6,25.25,NE,54,2.2,2.7,61,0.00,,---,0.00,VWS V14.01,2013-05-25 20:24:00,
2013-05-25 14:28:00,71.6,57.9,25.25,East,99,4.0,4.0,62,0.00,,---,0.00,VWS V14.01,2013-05-25 20:28:00,
2013-05-25 14:29:00,71.2,58.5,25.25,East,84,2.7,4.0,64,0.00,,---,0.00,VWS V14.01,2013-05-25 20:29:00,
2013-05-25 14:30:00,71.2,58.5,25.25,North,353,3.1,3.1,64,0.00,,---,0.00,VWS V14.01,2013-05-25 20:30:00,
2013-05-25 14:31:00,71.1,58.3,25.25,NNE,22,0.0,3.1,64,0.00,,---,0.00,VWS V14.01,2013-05-25 20:31:00,
2013-05-25 14:35:00,70.5,58.2,25.25,NW,314,3.1,3.1,65,0.00,,---,0.00,VWS V14.01,2013-05-25 20:35:00,
2013-05-25 14:36:00,70.5,58.2,25.25,North,353,0.0,3.1,65,0.00,,---,0.00,VWS V14.01,2013-05-25 20:36:00,
2013-05-25 14:37:00,70.5,58.6,25.25,NW,313,5.8,5.8,66,0.00,,---,0.00,VWS V14.01,2013-05-25 20:37:00,
2013-05-25 14:38:00,70.3,58.5,25.25,NW,316,3.6,5.8,66,0.00,,---,0.00,VWS V14.01,2013-05-25 20:38:00,
2013-05-25 14:39:00,70.3,58.5,25.25,NW,315,0.0,3.6,66,0.00,,---,0.00,VWS V14.01,2013-05-25 20:39:00,
2013-05-25 14:41:00,70.3,58.5,25.25,NE,36,2.2,4.0,66,0.00,,---,0.00,VWS V14.01,2013-05-25 20:41:00,
2013-05-25 14:43:00,70.0,58.5,25.25,North,353,0.0,0.0,67,0.00,,---,0.00,VWS V14.01,2013-05-25 20:43:00,
2013-05-25 14:46:00,69.8,58.4,25.25,NNE,15,2.7,3.1,67,0.00,,---,0.00,VWS V14.01,2013-05-25 20:46:00,
2013-05-25 14:47:00,69.8,59.2,25.25,WNW,302,2.7,2.7,69,0.00,,---,0.00,VWS V14.01,2013-05-25 20:47:00,
2013-05-25 14:48:00,69.8,59.2,25.25,WNW,302,2.2,2.7,69,0.00,,---,0.00,VWS V14.01,2013-05-25 20:48:00,
2013-05-25 14:49:00,69.8,59.2,25.25,WNW,302,0.0,2.7,69,0.00,,---,0.00,VWS V14.01,2013-05-25 20:49:00,
2013-05-25 14:52:00,69.4,59.6,25.25,WNW,303,2.7,2.7,71,0.00,,---,0.00,VWS V14.01,2013-05-25 20:52:00,
2013-05-25 14:53:00,69.4,59.6,25.25,North,11,0.0,2.7,71,0.00,,---,0.00,VWS V14.01,2013-05-25 20:53:00,
2013-05-25 14:54:00,69.3,59.5,25.25,North,11,0.0,2.2,71,0.00,,---,0.00,VWS V14.01,2013-05-25 20:54:00,
2013-05-25 14:55:00,69.3,59.5,25.25,NNW,345,0.0,0.0,71,0.00,,---,0.00,VWS V14.01,2013-05-25 20:55:00,
2013-05-25 14:58:00,69.1,59.7,25.25,NE,35,2.2,2.7,72,0.00,,---,0.00,VWS V14.01,2013-05-25 20:58:00,
2013-05-25 14:59:00,69.1,59.7,25.25,NE,35,0.0,2.2,72,0.00,,---,0.00,VWS V14.01,2013-05-25 20:59:00,
2013-05-25 15:00:00,69.1,59.7,25.25,NE,35,0.0,0.0,72,0.00,,---,0.00,VWS V14.01,2013-05-25 21:00:00,
2013-05-25 15:01:00,69.1,59.7,25.25,NE,35,2.7,2.7,72,0.00,,---,0.00,VWS V14.01,2013-05-25 21:01:00,
2013-05-25 15:04:00,68.9,59.9,25.25,NW,318,4.0,4.0,73,0.00,,---,0.00,VWS V14.01,2013-05-25 21:04:00,
2013-05-25 15:05:00,68.9,59.9,25.25,NW,318,2.7,4.0,73,0.00,,---,0.00,VWS V14.01,2013-05-25 21:05:00,
2013-05-25 15:07:00,68.7,59.7,25.25,NW,318,0.0,2.2,73,0.00,,---,0.00,VWS V14.01,2013-05-25 21:07:00,
2013-05-25 15:08:00,68.7,59.7,25.25,NW,318,0.0,0.0,73,0.00,,---,0.00,VWS V14.01,2013-05-25 21:08:00,
2013-05-25 15:09:00,68.7,59.7,25.25,NW,318,0.0,0.0,73,0.00,,---,0.00,VWS V14.01,2013-05-25 21:09:00,
2013-05-25 15:12:00,68.5,59.9,25.25,NW,318,0.0,0.0,74,0.00,,---,0.00,VWS V14.01,2013-05-25 21:12:00,
2013-05-25 15:13:00,68.5,59.9,25.25,NW,318,0.0,0.0,74,0.00,,---,0.00,VWS V14.01,2013-05-25 21:13:00,
2013-05-25 15:18:00,68.5,60.7,25.25,NW,314,2.7,2.7,76,0.00,,---,0.00,VWS V14.01,2013-05-25 21:18:00,
2013-05-25 15:19:00,68.5,61.0,25.25,NW,314,2.7,2.7,77,0.00,,---,0.00,VWS V14.01,2013-05-25 21:19:00,
2013-05-25 15:20:00,68.4,60.9,25.25,NW,320,2.7,2.7,77,0.00,,---,0.00,VWS V14.01,2013-05-25 21:20:00,
2013-05-25 15:21:00,68.4,60.9,25.25,NW,320,2.7,2.7,77,0.00,,---,0.00,VWS V14.01,2013-05-25 21:21:00,
2013-05-25 15:25:00,68.4,61.2,25.25,NW,320,3.1,3.1,78,0.00,,---,0.00,VWS V14.01,2013-05-25 21:25:00,
2013-05-25 15:26:00,68.4,61.2,25.25,NW,320,0.0,3.1,78,0.00,,---,0.00,VWS V14.01,2013-05-25 21:26:00,
2013-05-25 15:27:00,68.4,61.2,25.25,NW,320,0.0,2.2,78,0.00,,---,0.00,VWS V14.01,2013-05-25 21:27:00,
2013-05-25 15:30:00,68.2,61.8,25.25,NW,320,0.0,0.0,80,0.00,,---,0.00,VWS V14.01,2013-05-25 21:30:00,
2013-05-25 15:31:00,68.2,61.8,25.25,NW,320,2.7,2.7,80,0.00,,---,0.00,VWS V14.01,2013-05-25 21:31:00,
2013-05-25 15:32:00,68.2,61.8,25.25,NW,320,0.0,2.7,80,0.00,,---,0.00,VWS V14.01,2013-05-25 21:32:00,
2013-05-25 15:33:00,68.2,61.8,25.25,NW,320,0.0,0.0,80,0.00,,---,0.00,VWS V14.01,2013-05-25 21:33:00,
2013-05-25 15:35:00,68.2,61.8,25.25,NW,320,2.2,2.7,80,0.00,,---,0.00,VWS V14.01,2013-05-25 21:35:00,
2013-05-25 15:37:00,68.2,61.8,25.25,NW,320,0.0,0.0,80,0.00,,---,0.00,VWS V14.01,2013-05-25 21:37:00,
2013-05-25 15:41:00,67.8,62.1,25.22,NW,320,0.0,0.0,82,0.00,,---,0.00,VWS V14.01,2013-05-25 21:41:00,
2013-05-25 15:43:00,67.8,62.1,25.22,NNW,343,2.7,2.7,82,0.00,,---,0.00,VWS V14.01,2013-05-25 21:43:00,
2013-05-25 15:45:00,67.6,62.0,25.22,NW,320,4.0,4.0,82,0.00,,---,0.00,VWS V14.01,2013-05-25 21:45:00,
2013-05-25 15:49:00,67.6,62.0,25.25,NW,317,0.0,0.0,82,0.00,,---,0.00,VWS V14.01,2013-05-25 21:49:00,
2013-05-25 15:52:00,67.5,62.1,25.25,East,100,3.1,4.0,83,0.00,,---,0.00,VWS V14.01,2013-05-25 21:52:00,
2013-05-25 15:54:00,67.5,62.5,25.25,SE,128,3.1,3.1,84,0.00,,---,0.00,VWS V14.01,2013-05-25 21:54:00,
2013-05-25 15:55:00,67.5,62.5,25.25,SSE,163,0.0,3.1,84,0.00,,---,0.00,VWS V14.01,2013-05-25 21:55:00,
2013-05-25 15:59:00,67.5,62.8,25.25,East,83,2.2,2.7,85,0.00,,---,0.00,VWS V14.01,2013-05-25 21:59:00,
2013-05-25 16:01:00,67.5,62.8,25.25,East,83,0.0,2.7,85,0.00,,---,0.00,VWS V14.01,2013-05-25 22:01:00,
2013-05-25 16:04:00,67.3,63.3,25.25,East,83,0.0,0.0,87,0.00,,---,0.00,VWS V14.01,2013-05-25 22:04:00,
2013-05-25 16:05:00,67.1,63.1,25.25,East,83,0.0,0.0,87,0.00,,---,0.00,VWS V14.01,2013-05-25 22:05:00,
2013-05-25 16:07:00,67.1,63.1,25.25,ENE,69,3.1,3.1,87,0.00,,---,0.00,VWS V14.01,2013-05-25 22:07:00,
2013-05-25 16:09:00,67.1,63.1,25.25,East,79,2.2,3.6,87,0.00,,---,0.00,VWS V14.01,2013-05-25 22:09:00,
2013-05-25 16:11:00,67.1,63.4,25.25,ESE,116,5.4,5.4,88,0.00,,---,0.00,VWS V14.01,2013-05-25 22:11:00,
2013-05-25 16:12:00,67.1,63.4,25.25,ESE,119,4.0,5.4,88,0.00,,---,0.00,VWS V14.01,2013-05-25 22:12:00,
2013-05-25 16:16:00,66.9,63.6,25.25,East,92,4.0,4.0,89,0.00,,---,0.00,VWS V14.01,2013-05-25 22:16:00,
2013-05-25 16:17:00,66.9,63.6,25.25,ESE,114,5.4,5.4,89,0.00,,---,0.00,VWS V14.01,2013-05-25 22:17:00,
2013-05-25 16:20:00,66.7,63.4,25.25,East,86,2.2,2.2,89,0.00,,---,0.00,VWS V14.01,2013-05-25 22:20:00,
2013-05-25 16:21:00,66.7,63.4,25.25,East,101,4.0,4.9,89,0.00,,---,0.00,VWS V14.01,2013-05-25 22:21:00,
2013-05-25 16:22:00,66.6,62.9,25.25,East,97,3.6,4.0,88,0.00,,---,0.00,VWS V14.01,2013-05-25 22:22:00,
2013-05-25 16:24:00,66.6,62.9,25.25,ESE,115,3.1,3.1,88,0.00,,---,0.00,VWS V14.01,2013-05-25 22:24:00,
2013-05-25 16:26:00,66.6,62.9,25.25,ESE,110,0.0,2.2,88,0.00,,---,0.00,VWS V14.01,2013-05-25 22:26:00,
2013-05-25 16:29:00,66.6,62.9,25.25,ESE,107,0.0,2.7,88,0.00,,---,0.00,VWS V14.01,2013-05-25 22:29:00,
2013-05-25 16:31:00,66.4,62.7,25.25,SE,142,2.7,3.6,88,0.00,,---,0.00,VWS V14.01,2013-05-25 22:31:00,
2013-05-25 16:33:00,66.4,62.7,25.25,ENE,59,0.0,0.0,88,0.00,,---,0.00,VWS V14.01,2013-05-25 22:33:00,
2013-05-25 16:34:00,66.4,62.7,25.25,ESE,108,2.7,2.7,88,0.00,,---,0.00,VWS V14.01,2013-05-25 22:34:00,
2013-05-25 16:39:00,66.4,62.1,25.25,ENE,78,2.7,3.1,86,0.00,,---,0.00,VWS V14.01,2013-05-25 22:39:00,
2013-05-25 16:40:00,66.4,62.1,25.25,East,88,2.2,3.6,86,0.00,,---,0.00,VWS V14.01,2013-05-25 22:40:00,
2013-05-25 16:41:00,66.4,62.1,25.25,East,83,2.2,2.2,86,0.00,,---,0.00,VWS V14.01,2013-05-25 22:41:00,
2013-05-25 16:42:00,66.4,61.7,25.25,ESE,104,3.6,3.6,85,0.00,,---,0.00,VWS V14.01,2013-05-25 22:42:00,
2013-05-25 16:47:00,66.4,60.7,25.25,East,82,0.0,0.0,82,0.00,,---,0.00,VWS V14.01,2013-05-25 22:47:00,
2013-05-25 16:49:00,66.4,60.7,25.25,East,92,2.7,2.7,82,0.00,,---,0.00,VWS V14.01,2013-05-25 22:49:00,
2013-05-25 16:51:00,66.4,60.4,25.25,ENE,68,4.0,4.0,81,0.00,,---,0.00,VWS V14.01,2013-05-25 22:51:00,
2013-05-25 16:52:00,66.4,60.4,25.25,ESE,105,2.7,4.0,81,0.00,,---,0.00,VWS V14.01,2013-05-25 22:52:00,
2013-05-25 16:53:00,66.4,60.4,25.25,East,96,4.9,4.9,81,0.00,,---,0.00,VWS V14.01,2013-05-25 22:53:00,
2013-05-25 16:54:00,66.4,60.4,25.25,ESE,102,3.1,4.9,81,0.00,,---,0.00,VWS V14.01,2013-05-25 22:54:00,
2013-05-25 16:55:00,66.4,60.4,25.25,East,87,3.6,4.9,81,0.00,,---,0.00,VWS V14.01,2013-05-25 22:55:00,
2013-05-25 16:57:00,66.4,60.4,25.25,NE,51,3.6,4.0,81,0.00,,---,0.00,VWS V14.01,2013-05-25 22:57:00,
2013-05-25 17:00:00,66.2,60.2,25.25,ESE,108,4.0,4.0,81,0.00,,---,0.00,VWS V14.01,2013-05-25 23:00:00,
2013-05-25 17:02:00,66.0,60.0,25.25,ESE,109,2.7,6.3,81,0.00,,---,0.00,VWS V14.01,2013-05-25 23:02:00,
2013-05-25 17:04:00,66.0,60.0,25.25,NE,56,2.7,6.7,81,0.00,,---,0.00,VWS V14.01,2013-05-25 23:04:00,
2013-05-25 17:05:00,66.0,60.0,25.25,South,171,2.7,2.7,81,0.00,,---,0.00,VWS V14.01,2013-05-25 23:05:00,
2013-05-25 17:07:00,66.0,60.0,25.25,SSE,149,2.7,2.7,81,0.00,,---,0.00,VWS V14.01,2013-05-25 23:07:00,
2013-05-25 17:08:00,65.8,59.8,25.25,ESE,112,3.6,5.8,81,0.00,,---,0.00,VWS V14.01,2013-05-25 23:08:00,
2013-05-25 17:09:00,65.8,59.8,25.25,East,97,5.4,5.8,81,0.00,,---,0.00,VWS V14.01,2013-05-25 23:09:00,
2013-05-25 17:11:00,65.8,59.8,25.25,East,92,2.7,4.0,81,0.00,,---,0.00,VWS V14.01,2013-05-25 23:11:00,
2013-05-25 17:13:00,65.8,59.8,25.25,East,100,0.0,3.1,81,0.00,,---,0.00,VWS V14.01,2013-05-25 23:13:00,
2013-05-25 17:14:00,65.8,59.8,25.25,SSE,151,5.4,5.4,81,0.00,,---,0.00,VWS V14.01,2013-05-25 23:14:00,
2013-05-25 17:16:00,65.8,59.8,25.25,East,82,0.0,0.0,81,0.00,,---,0.00,VWS V14.01,2013-05-25 23:16:00,
2013-05-25 17:17:00,65.8,59.8,25.25,East,82,0.0,0.0,81,0.00,,---,0.00,VWS V14.01,2013-05-25 23:17:00,
2013-05-25 17:18:00,65.8,59.8,25.25,SSE,154,5.4,5.4,81,0.00,,---,0.00,VWS V14.01,2013-05-25 23:18:00,
2013-05-25 17:22:00,65.8,60.2,25.25,East,93,4.9,6.3,82,0.00,,---,0.00,VWS V14.01,2013-05-25 23:22:00,
2013-05-25 17:23:00,65.8,60.2,25.25,East,90,3.1,5.4,82,0.00,,---,0.00,VWS V14.01,2013-05-25 23:23:00,
2013-05-25 17:24:00,65.8,60.2,25.25,East,97,3.1,3.1,82,0.00,,---,0.00,VWS V14.01,2013-05-25 23:24:00,
2013-05-25 17:25:00,65.8,60.2,25.25,East,97,2.7,4.0,82,0.00,,---,0.00,VWS V14.01,2013-05-25 23:25:00,
2013-05-25 17:28:00,65.7,60.0,25.25,East,85,4.9,4.9,82,0.00,,---,0.00,VWS V14.01,2013-05-25 23:28:00,
2013-05-25 17:29:00,65.7,60.4,25.25,East,99,4.9,4.9,83,0.00,,---,0.00,VWS V14.01,2013-05-25 23:29:00,
2013-05-25 17:31:00,65.7,60.4,25.25,ESE,114,2.2,3.1,83,0.00,,---,0.00,VWS V14.01,2013-05-25 23:31:00,
2013-05-25 17:32:00,65.7,60.4,25.25,NE,43,3.1,3.6,83,0.00,,---,0.00,VWS V14.01,2013-05-25 23:32:00,
2013-05-25 17:34:00,65.7,60.4,25.25,East,79,2.7,3.1,83,0.00,,---,0.00,VWS V14.01,2013-05-25 23:34:00,
2013-05-25 17:37:00,65.5,60.5,25.25,ESE,106,4.9,4.9,84,0.00,,---,0.00,VWS V14.01,2013-05-25 23:37:00,
2013-05-25 17:39:00,65.5,60.9,25.25,East,89,2.7,3.6,85,0.00,,---,0.00,VWS V14.01,2013-05-25 23:39:00,
2013-05-25 17:40:00,65.5,61.2,25.25,East,89,2.7,2.7,86,0.00,,---,0.00,VWS V14.01,2013-05-25 23:40:00,
2013-05-25 17:43:00,65.5,61.5,25.25,NE,54,6.3,6.3,87,0.00,,---,0.00,VWS V14.01,2013-05-25 23:43:00,
2013-05-25 17:46:00,65.3,61.3,25.25,NE,48,3.6,3.6,87,0.00,,---,0.00,VWS V14.01,2013-05-25 23:46:00,
2013-05-25 17:47:00,65.3,61.3,25.25,ENE,60,7.6,7.6,87,0.00,,---,0.00,VWS V14.01,2013-05-25 23:47:00,
2013-05-25 17:48:00,65.3,61.7,25.25,ENE,70,2.7,7.6,88,0.00,,---,0.00,VWS V14.01,2013-05-25 23:48:00,
2013-05-25 17:50:00,65.1,61.5,25.25,East,90,4.0,5.8,88,0.00,,---,0.00,VWS V14.01,2013-05-25 23:50:00,
2013-05-25 17:52:00,65.1,61.5,25.25,NE,55,3.1,3.1,88,0.00,,---,0.00,VWS V14.01,2013-05-25 23:52:00,
2013-05-25 17:53:00,65.1,61.5,25.25,ESE,113,4.0,4.0,88,0.00,,---,0.00,VWS V14.01,2013-05-25 23:53:00,
2013-05-25 17:55:00,65.1,61.5,25.25,NNE,33,5.4,5.4,88,0.00,,---,0.00,VWS V14.01,2013-05-25 23:55:00,
2013-05-25 17:57:00,65.1,61.5,25.25,ENE,68,3.1,5.4,88,0.00,,---,0.00,VWS V14.01,2013-05-25 23:57:00,
2013-05-25 18:00:00,64.9,61.3,25.25,ENE,77,4.0,4.0,88,0.00,,---,0.00,VWS V14.01,2013-05-26 00:00:00,
2013-05-25 18:01:00,64.9,61.3,25.25,NE,42,4.0,4.9,88,0.00,,---,0.00,VWS V14.01,2013-05-26 00:01:00,
2013-05-25 18:03:00,64.9,61.3,25.28,ESE,119,2.7,6.3,88,0.00,,---,0.00,VWS V14.01,2013-05-26 00:03:00,
2013-05-25 18:05:00,64.9,61.3,25.28,ESE,109,2.7,2.7,88,0.00,,---,0.00,VWS V14.01,2013-05-26 00:05:00,
2013-05-25 18:07:00,64.8,61.1,25.28,ESE,120,5.8,5.8,88,0.00,,---,0.00,VWS V14.01,2013-05-26 00:07:00,
2013-05-25 18:11:00,64.8,61.1,25.28,NE,40,0.0,2.7,88,0.00,,---,0.00,VWS V14.01,2013-05-26 00:11:00,
2013-05-25 18:12:00,64.8,61.5,25.28,ENE,70,6.3,6.3,89,0.00,,---,0.00,VWS V14.01,2013-05-26 00:12:00,
2013-05-25 18:14:00,64.8,61.5,25.28,East,89,0.0,5.8,89,0.00,,---,0.00,VWS V14.01,2013-05-26 00:14:00,
2013-05-25 18:17:00,64.6,61.3,25.28,NE,53,3.1,3.1,89,0.00,,---,0.00,VWS V14.01,2013-05-26 00:17:00,
2013-05-25 18:18:00,64.6,61.3,25.28,East,89,3.6,3.6,89,0.00,,---,0.00,VWS V14.01,2013-05-26 00:18:00,
2013-05-25 18:19:00,64.6,61.3,25.28,East,81,3.1,3.6,89,0.00,,---,0.00,VWS V14.01,2013-05-26 00:19:00,
2013-05-25 18:20:00,64.6,61.3,25.28,ENE,64,4.0,4.0,89,0.00,,---,0.00,VWS V14.01,2013-05-26 00:20:00,
2013-05-25 18:21:00,64.6,61.3,25.28,ENE,57,5.4,5.4,89,0.00,,---,0.00,VWS V14.01,2013-05-26 00:21:00,
2013-05-25 18:22:00,64.6,61.3,25.28,ENE,77,3.6,5.4,89,0.00,,---,0.00,VWS V14.01,2013-05-26 00:22:00,
2013-05-25 18:25:00,64.4,61.4,25.28,East,97,3.1,4.0,90,0.00,,---,0.00,VWS V14.01,2013-05-26 00:25:00,
2013-05-25 18:27:00,64.4,61.4,25.28,ENE,64,2.2,3.1,90,0.00,,---,0.00,VWS V14.01,2013-05-26 00:27:00,
2013-05-25 18:28:00,64.4,61.4,25.28,East,84,5.8,5.8,90,0.00,,---,0.00,VWS V14.01,2013-05-26 00:28:00,
2013-05-25 18:30:00,64.4,61.7,25.28,ESE,120,3.6,5.8,91,0.00,,---,0.00,VWS V14.01,2013-05-26 00:30:00,
2013-05-25 18:32:00,64.2,61.5,25.28,SE,127,2.7,5.8,91,0.00,,---,0.00,VWS V14.01,2013-05-26 00:32:00,
2013-05-25 18:33:00,64.2,61.5,25.28,SE,141,5.4,5.4,91,0.00,,---,0.00,VWS V14.01,2013-05-26 00:33:00,
2013-05-25 18:35:00,64.2,61.8,25.28,ENE,76,3.1,5.8,92,0.00,,---,0.00,VWS V14.01,2013-05-26 00:35:00,
2013-05-25 18:38:00,64.2,61.8,25.28,East,84,6.3,7.6,92,0.00,,---,0.00,VWS V14.01,2013-05-26 00:38:00,
2013-05-25 18:39:00,64.2,61.8,25.28,East,79,3.6,6.3,92,0.00,,---,0.00,VWS V14.01,2013-05-26 00:39:00,
2013-05-25 18:40:00,64.2,61.8,25.28,ENE,70,3.6,3.6,92,0.00,,---,0.00,VWS V14.01,2013-05-26 00:40:00,
2013-05-25 18:43:00,64.2,62.2,25.28,ENE,67,3.1,3.1,93,0.00,,---,0.00,VWS V14.01,2013-05-26 00:43:00,
2013-05-25 18:45:00,64.2,62.2,25.28,ENE,61,3.1,4.0,93,0.00,,---,0.00,VWS V14.01,2013-05-26 00:45:00,
2013-05-25 18:50:00,64.2,62.2,25.28,ENE,70,2.7,4.9,93,0.00,,---,0.00,VWS V14.01,2013-05-26 00:50:00,
2013-05-25 18:51:00,64.0,62.0,25.28,ENE,71,4.0,4.0,93,0.00,,---,0.00,VWS V14.01,2013-05-26 00:51:00,
2013-05-25 18:52:00,64.0,62.0,25.28,ENE,71,4.0,4.0,93,0.00,,---,0.00,VWS V14.01,2013-05-26 00:52:00,
2013-05-25 18:54:00,64.2,62.5,25.28,ESE,123,5.8,6.3,94,0.00,,---,0.00,VWS V14.01,2013-05-26 00:54:00,
2013-05-25 18:57:00,64.2,62.5,25.28,East,101,3.6,5.4,94,0.00,,---,0.00,VWS V14.01,2013-05-26 00:57:00,
2013-05-25 18:58:00,64.2,62.5,25.28,ESE,111,4.0,4.0,94,0.00,,---,0.00,VWS V14.01,2013-05-26 00:58:00,
2013-05-25 19:02:00,64.4,62.3,25.28,NNE,29,2.7,3.6,93,0.00,,---,0.00,VWS V14.01,2013-05-26 01:02:00,
2013-05-25 19:04:00,64.4,62.0,25.28,SE,128,3.6,6.3,92,0.00,,---,0.00,VWS V14.01,2013-05-26 01:04:00,
2013-05-25 19:05:00,64.4,62.0,25.28,ESE,106,4.0,6.3,92,0.00,,---,0.00,VWS V14.01,2013-05-26 01:05:00,
2013-05-25 19:08:00,64.6,61.6,25.28,ESE,104,3.6,4.0,90,0.00,,---,0.00,VWS V14.01,2013-05-26 01:08:00,
2013-05-25 19:09:00,64.6,61.6,25.28,ESE,122,3.1,3.6,90,0.00,,---,0.00,VWS V14.01,2013-05-26 01:09:00,
2013-05-25 19:12:00,64.8,61.1,25.28,SSE,155,8.1,8.1,88,0.00,,---,0.00,VWS V14.01,2013-05-26 01:12:00,
2013-05-25 19:13:00,64.8,61.1,25.28,ESE,107,5.4,8.1,88,0.00,,---,0.00,VWS V14.01,2013-05-26 01:13:00,
2013-05-25 19:14:00,64.8,61.1,25.28,ESE,107,5.4,5.4,88,0.00,,---,0.00,VWS V14.01,2013-05-26 01:14:00,
2013-05-25 19:17:00,65.3,58.6,25.28,SSE,161,0.0,3.1,79,0.00,,---,0.00,VWS V14.01,2013-05-26 01:17:00,
2013-05-25 19:18:00,65.3,58.6,25.28,East,92,3.1,3.1,79,0.00,,---,0.00,VWS V14.01,2013-05-26 01:18:00,
2013-05-25 19:23:00,65.7,58.3,25.28,ENE,67,2.7,2.7,77,0.00,,---,0.00,VWS V14.01,2013-05-26 01:23:00,
2013-05-25 19:24:00,65.7,57.9,25.28,ESE,109,3.6,3.6,76,0.00,,---,0.00,VWS V14.01,2013-05-26 01:24:00,
2013-05-25 19:25:00,65.7,57.9,25.28,ESE,109,3.6,3.6,76,0.00,,---,0.00,VWS V14.01,2013-05-26 01:25:00,
2013-05-25 19:26:00,65.7,57.9,25.28,South,185,0.0,3.6,76,0.00,,---,0.00,VWS V14.01,2013-05-26 01:26:00,
2013-05-25 19:30:00,65.7,57.9,25.28,ESE,120,4.0,6.3,76,0.00,,---,0.00,VWS V14.01,2013-05-26 01:30:00,
2013-05-25 19:31:00,65.8,57.3,25.28,ENE,76,3.6,4.0,74,0.00,,---,0.00,VWS V14.01,2013-05-26 01:31:00,
2013-05-25 19:34:00,65.8,57.0,25.28,SE,141,2.7,3.1,73,0.00,,---,0.00,VWS V14.01,2013-05-26 01:34:00,
2013-05-25 19:37:00,65.8,57.0,25.28,East,98,3.1,3.6,73,0.00,,---,0.00,VWS V14.01,2013-05-26 01:37:00,
2013-05-25 19:38:00,65.8,56.6,25.28,SSE,151,3.6,6.3,72,0.00,,---,0.00,VWS V14.01,2013-05-26 01:38:00,
2013-05-25 19:41:00,66.0,56.4,25.28,East,94,4.0,4.0,71,0.00,,---,0.00,VWS V14.01,2013-05-26 01:41:00,
2013-05-25 19:45:00,66.0,56.4,25.28,East,97,3.6,4.0,71,0.00,,---,0.00,VWS V14.01,2013-05-26 01:45:00,
2013-05-25 19:46:00,66.0,56.4,25.28,East,93,7.6,7.6,71,0.00,,---,0.00,VWS V14.01,2013-05-26 01:46:00,
2013-05-25 19:47:00,66.2,56.1,25.28,NNE,23,3.6,7.6,70,0.00,,---,0.00,VWS V14.01,2013-05-26 01:47:00,
2013-05-25 19:50:00,66.2,56.5,25.28,ESE,113,4.9,4.9,71,0.00,,---,0.00,VWS V14.01,2013-05-26 01:50:00,
2013-05-25 19:52:00,66.2,56.1,25.28,ESE,106,4.0,4.0,70,0.00,,---,0.00,VWS V14.01,2013-05-26 01:52:00,
2013-05-25 19:54:00,66.2,56.5,25.28,ENE,59,3.1,5.4,71,0.00,,---,0.00,VWS V14.01,2013-05-26 01:54:00,
2013-05-25 19:56:00,66.2,56.5,25.28,ESE,111,5.4,6.3,71,0.00,,---,0.00,VWS V14.01,2013-05-26 01:56:00,
2013-05-25 19:57:00,66.2,56.5,25.28,ESE,111,5.4,5.4,71,0.00,,---,0.00,VWS V14.01,2013-05-26 01:57:00,
2013-05-25 19:59:00,66.2,56.5,25.28,ESE,106,5.4,6.7,71,0.00,,---,0.00,VWS V14.01,2013-05-26 01:59:00,
2013-05-25 20:00:00,66.2,56.5,25.28,SSW,198,5.4,5.4,71,0.00,,---,0.00,VWS V14.01,2013-05-26 02:00:00,
2013-05-25 20:04:00,66.4,55.5,25.28,ESE,112,2.7,2.7,68,0.00,,---,0.00,VWS V14.01,2013-05-26 02:04:00,
2013-05-25 20:06:00,66.4,55.5,25.28,East,87,2.2,2.2,68,0.00,,---,0.00,VWS V14.01,2013-05-26 02:06:00,
2013-05-25 20:09:00,66.4,55.5,25.28,NE,36,2.7,3.1,68,0.00,,---,0.00,VWS V14.01,2013-05-26 02:09:00,
2013-05-25 20:10:00,66.4,56.3,25.28,NNE,24,2.7,2.7,70,0.00,,---,0.00,VWS V14.01,2013-05-26 02:10:00,
2013-05-25 20:11:00,66.2,56.1,25.28,North,7,0.0,2.7,70,0.00,,---,0.00,VWS V14.01,2013-05-26 02:11:00,
2013-05-25 20:12:00,66.2,56.1,25.28,NE,34,0.0,0.0,70,0.00,,---,0.00,VWS V14.01,2013-05-26 02:12:00,
2013-05-25 20:14:00,66.2,56.5,25.28,NW,314,0.0,0.0,71,0.00,,---,0.00,VWS V14.01,2013-05-26 02:14:00,
2013-05-25 20:16:00,65.8,57.3,25.28,East,89,5.8,5.8,74,0.00,,---,0.00,VWS V14.01,2013-05-26 02:16:00,
2013-05-25 20:17:00,65.8,57.3,25.28,ESE,119,6.3,6.3,74,0.00,,---,0.00,VWS V14.01,2013-05-26 02:17:00,
2013-05-25 20:18:00,65.8,57.3,25.28,East,88,4.0,6.3,74,0.00,,---,0.00,VWS V14.01,2013-05-26 02:18:00,
2013-05-25 20:19:00,65.8,57.3,25.28,East,88,4.0,4.0,74,0.00,,---,0.00,VWS V14.01,2013-05-26 02:19:00,
2013-05-25 20:22:00,65.5,58.8,25.28,East,80,4.9,4.9,79,0.00,,---,0.00,VWS V14.01,2013-05-26 02:22:00,
2013-05-25 20:24:00,65.1,58.8,25.28,ESE,109,3.6,4.0,80,0.00,,---,0.00,VWS V14.01,2013-05-26 02:24:00,
2013-05-25 20:25:00,65.1,59.2,25.28,ESE,109,3.6,3.6,81,0.00,,---,0.00,VWS V14.01,2013-05-26 02:25:00,
2013-05-25 20:26:00,65.1,59.2,25.28,ESE,109,3.6,3.6,81,0.00,,---,0.00,VWS V14.01,2013-05-26 02:26:00,
2013-05-25 20:27:00,65.1,59.2,25.28,NE,35,0.0,3.6,81,0.00,,---,0.00,VWS V14.01,2013-05-26 02:27:00,
2013-05-25 20:28:00,64.8,58.8,25.28,NE,35,0.0,0.0,81,0.00,,---,0.00,VWS V14.01,2013-05-26 02:28:00,
2013-05-25 20:31:00,64.8,59.8,25.28,East,86,2.7,3.1,84,0.00,,---,0.00,VWS V14.01,2013-05-26 02:31:00,
2013-05-25 20:35:00,64.6,59.6,25.28,ENE,74,2.7,5.4,84,0.00,,---,0.00,VWS V14.01,2013-05-26 02:35:00,
2013-05-25 20:36:00,64.6,59.6,25.28,NE,47,4.0,4.0,84,0.00,,---,0.00,VWS V14.01,2013-05-26 02:36:00,
2013-05-25 20:40:00,64.6,60.6,25.28,ENE,70,4.9,4.9,87,0.00,,---,0.00,VWS V14.01,2013-05-26 02:40:00,
2013-05-25 20:42:00,64.4,60.5,25.28,SE,127,5.8,5.8,87,0.00,,---,0.00,VWS V14.01,2013-05-26 02:42:00,
2013-05-25 20:43:00,64.4,60.5,25.28,SE,138,6.3,8.1,87,0.00,,---,0.00,VWS V14.01,2013-05-26 02:43:00,
2013-05-25 20:45:00,64.4,60.5,25.28,East,86,4.0,5.4,87,0.00,,---,0.00,VWS V14.01,2013-05-26 02:45:00,
2013-05-25 20:49:00,64.4,60.5,25.28,SE,131,5.4,5.4,87,0.00,,---,0.00,VWS V14.01,2013-05-26 02:49:00,
2013-05-25 20:50:00,64.4,60.5,25.28,ESE,104,2.7,5.8,87,0.00,,---,0.00,VWS V14.01,2013-05-26 02:50:00,
2013-05-25 20:51:00,64.6,60.6,25.28,ESE,104,2.7,2.7,87,0.00,,---,0.00,VWS V14.01,2013-05-26 02:51:00,
2013-05-25 20:55:00,64.6,60.3,25.28,ESE,118,2.7,2.7,86,0.00,,---,0.00,VWS V14.01,2013-05-26 02:55:00,
2013-05-25 20:57:00,64.6,60.0,25.28,SSE,147,3.6,5.8,85,0.00,,---,0.00,VWS V14.01,2013-05-26 02:57:00,
2013-05-25 20:58:00,64.6,59.6,25.28,ESE,102,5.8,5.8,84,0.00,,---,0.00,VWS V14.01,2013-05-26 02:58:00,
2013-05-25 21:00:00,64.8,59.5,25.28,SE,133,3.1,5.8,83,0.00,,---,0.00,VWS V14.01,2013-05-26 03:00:00,
2013-05-25 21:01:00,64.8,59.5,25.28,ESE,114,7.2,7.2,83,0.00,,---,0.00,VWS V14.01,2013-05-26 03:01:00,
2013-05-25 21:02:00,64.8,59.5,25.28,East,83,4.0,7.2,83,0.00,,---,0.00,VWS V14.01,2013-05-26 03:02:00,
2013-05-25 21:04:00,64.8,59.1,25.28,East,89,4.0,4.0,82,0.00,,---,0.00,VWS V14.01,2013-05-26 03:04:00,
2013-05-25 21:05:00,64.8,59.1,25.28,East,95,3.6,4.0,82,0.00,,---,0.00,VWS V14.01,2013-05-26 03:05:00,
2013-05-25 21:06:00,64.9,59.3,25.28,ENE,65,5.8,5.8,82,0.00,,---,0.00,VWS V14.01,2013-05-26 03:06:00,
2013-05-25 21:09:00,64.9,59.0,25.28,ENE,72,5.8,5.8,81,0.00,,---,0.00,VWS V14.01,2013-05-26 03:09:00,
2013-05-25 21:10:00,64.9,59.0,25.28,East,83,5.8,5.8,81,0.00,,---,0.00,VWS V14.01,2013-05-26 03:10:00,
2013-05-25 21:11:00,64.9,58.6,25.28,ESE,104,4.5,5.8,80,0.00,,---,0.00,VWS V14.01,2013-05-26 03:11:00,
2013-05-25 21:16:00,65.1,58.8,25.28,ESE,105,2.2,7.2,80,0.00,,---,0.00,VWS V14.01,2013-05-26 03:16:00,
2013-05-25 21:17:00,65.1,58.8,25.28,ESE,102,8.1,8.1,80,0.00,,---,0.00,VWS V14.01,2013-05-26 03:17:00,
2013-05-25 21:18:00,65.1,58.8,25.31,East,89,4.0,8.1,80,0.00,,---,0.00,VWS V14.01,2013-05-26 03:18:00,
2013-05-25 21:19:00,65.1,58.5,25.31,ENE,75,8.1,8.1,79,0.00,,---,0.00,VWS V14.01,2013-05-26 03:19:00,
2013-05-25 21:22:00,65.3,58.6,25.31,ENE,70,5.8,8.1,79,0.00,,---,0.00,VWS V14.01,2013-05-26 03:22:00,
2013-05-25 21:25:00,65.3,58.6,25.31,SE,124,5.4,5.4,79,0.00,,---,0.00,VWS V14.01,2013-05-26 03:25:00,
2013-05-25 21:26:00,65.3,58.6,25.31,ENE,58,6.3,6.3,79,0.00,,---,0.00,VWS V14.01,2013-05-26 03:26:00,
2013-05-25 21:27:00,65.1,58.5,25.31,ENE,62,6.3,6.3,79,0.00,,---,0.00,VWS V14.01,2013-05-26 03:27:00,
2013-05-25 21:28:00,65.1,58.5,25.31,ENE,74,5.4,6.3,79,0.00,,---,0.00,VWS V14.01,2013-05-26 03:28:00,
2013-05-25 21:31:00,65.1,58.8,25.31,ENE,74,4.9,8.1,80,0.00,,---,0.00,VWS V14.01,2013-05-26 03:31:00,
2013-05-25 21:32:00,65.1,58.8,25.31,ESE,107,5.4,5.8,80,0.00,,---,0.00,VWS V14.01,2013-05-26 03:32:00,
2013-05-25 21:36:00,65.1,58.8,25.31,NE,47,5.4,5.4,80,0.00,,---,0.00,VWS V14.01,2013-05-26 03:36:00,
2013-05-25 21:38:00,65.1,58.8,25.31,ENE,78,5.4,5.4,80,0.00,,---,0.00,VWS V14.01,2013-05-26 03:38:00,
2013-05-25 21:39:00,65.1,58.8,25.31,ENE,74,3.6,5.4,80,0.00,,---,0.00,VWS V14.01,2013-05-26 03:39:00,
2013-05-25 21:42:00,65.1,58.8,25.31,ESE,114,6.3,6.3,80,0.00,,---,0.00,VWS V14.01,2013-05-26 03:42:00,
2013-05-25 21:43:00,64.9,59.0,25.31,NNE,26,6.3,6.3,81,0.00,,---,0.00,VWS V14.01,2013-05-26 03:43:00,
2013-05-25 21:44:00,64.9,59.0,25.31,East,89,4.0,8.1,81,0.00,,---,0.00,VWS V14.01,2013-05-26 03:44:00,
2013-05-25 21:46:00,64.9,59.0,25.31,NE,51,5.8,5.8,81,0.00,,---,0.00,VWS V14.01,2013-05-26 03:46:00,
2013-05-25 21:48:00,64.8,59.1,25.31,SE,130,5.8,5.8,82,0.00,,---,0.00,VWS V14.01,2013-05-26 03:48:00,
2013-05-25 21:50:00,64.6,59.3,25.31,ESE,109,5.8,5.8,83,0.00,,---,0.00,VWS V14.01,2013-05-26 03:50:00,
2013-05-25 21:51:00,64.6,59.3,25.31,East,84,4.0,5.8,83,0.00,,---,0.00,VWS V14.01,2013-05-26 03:51:00,
2013-05-25 21:54:00,64.6,59.3,25.31,ENE,68,7.2,7.2,83,0.00,,---,0.00,VWS V14.01,2013-05-26 03:54:00,
2013-05-25 21:55:00,64.6,59.3,25.31,ESE,111,7.2,7.2,83,0.00,,---,0.00,VWS V14.01,2013-05-26 03:55:00,
2013-05-25 21:57:00,64.6,59.3,25.31,East,85,5.4,7.2,83,0.00,,---,0.00,VWS V14.01,2013-05-26 03:57:00,
2013-05-25 21:58:00,64.4,59.8,25.31,ENE,65,5.4,5.4,85,0.00,,---,0.00,VWS V14.01,2013-05-26 03:58:00,
2013-05-25 22:00:00,64.4,59.8,25.31,East,79,5.4,5.4,85,0.00,,---,0.00,VWS V14.01,2013-05-26 04:00:00,
2013-05-25 22:01:00,64.4,59.8,25.31,East,89,8.7,8.7,85,0.00,,---,0.00,VWS V14.01,2013-05-26 04:01:00,
2013-05-25 22:03:00,64.4,59.8,25.31,East,85,5.8,5.8,85,0.00,,---,0.00,VWS V14.01,2013-05-26 04:03:00,
2013-05-25 22:05:00,64.4,59.8,25.31,East,86,5.4,5.8,85,0.00,,---,0.00,VWS V14.01,2013-05-26 04:05:00,
2013-05-25 22:07:00,64.4,60.1,25.31,ENE,69,3.6,3.6,86,0.00,,---,0.00,VWS V14.01,2013-05-26 04:07:00,
2013-05-25 22:08:00,64.4,60.1,25.31,SE,130,4.0,4.0,86,0.00,,---,0.00,VWS V14.01,2013-05-26 04:08:00,
2013-05-25 22:11:00,64.2,60.0,25.31,ENE,65,4.5,4.5,86,0.00,,---,0.00,VWS V14.01,2013-05-26 04:11:00,
2013-05-25 22:14:00,64.2,60.0,25.31,East,94,4.0,5.8,86,0.00,,---,0.00,VWS V14.01,2013-05-26 04:14:00,
2013-05-25 22:15:00,64.2,60.0,25.31,East,94,4.0,4.0,86,0.00,,---,0.00,VWS V14.01,2013-05-26 04:15:00,
2013-05-25 22:16:00,64.2,60.3,25.31,ENE,60,5.4,5.4,87,0.00,,---,0.00,VWS V14.01,2013-05-26 04:16:00,
2013-05-25 22:20:00,64.2,60.3,25.31,NE,50,3.1,3.1,87,0.00,,---,0.00,VWS V14.01,2013-05-26 04:20:00,
2013-05-25 22:22:00,64.2,60.3,25.31,NE,46,2.2,3.1,87,0.00,,---,0.00,VWS V14.01,2013-05-26 04:22:00,
2013-05-25 22:23:00,64.2,60.3,25.31,NNE,26,0.0,2.2,87,0.00,,---,0.00,VWS V14.01,2013-05-26 04:23:00,
2013-05-25 22:28:00,64.0,60.1,25.31,NW,316,0.0,0.0,87,0.00,,---,0.00,VWS V14.01,2013-05-26 04:28:00,
2013-05-25 22:29:00,64.0,60.1,25.31,NW,316,0.0,0.0,87,0.00,,---,0.00,VWS V14.01,2013-05-26 04:29:00,
2013-05-25 22:31:00,64.0,60.1,25.31,NW,304,2.2,2.7,87,0.00,,---,0.00,VWS V14.01,2013-05-26 04:31:00,
2013-05-25 22:32:00,64.0,60.1,25.31,NW,312,2.7,2.7,87,0.00,,---,0.00,VWS V14.01,2013-05-26 04:32:00,
2013-05-25 22:33:00,63.9,60.2,25.31,SW,229,0.0,2.7,88,0.00,,---,0.00,VWS V14.01,2013-05-26 04:33:00,
2013-05-25 22:35:00,63.9,60.2,25.31,SW,229,0.0,0.0,88,0.00,,---,0.00,VWS V14.01,2013-05-26 04:35:00,
2013-05-25 22:36:00,63.9,60.2,25.31,SW,229,0.0,0.0,88,0.00,,---,0.00,VWS V14.01,2013-05-26 04:36:00,
2013-05-25 22:37:00,63.9,60.2,25.31,North,0,3.1,3.1,88,0.00,,---,0.00,VWS V14.01,2013-05-26 04:37:00,
2013-05-25 22:40:00,63.9,60.2,25.31,NNW,341,0.0,0.0,88,0.00,,---,0.00,VWS V14.01,2013-05-26 04:40:00,
2013-05-25 22:42:00,63.7,60.1,25.31,NNW,344,2.7,2.7,88,0.00,,---,0.00,VWS V14.01,2013-05-26 04:42:00,
2013-05-25 22:44:00,63.7,60.1,25.31,NNW,344,0.0,0.0,88,0.00,,---,0.00,VWS V14.01,2013-05-26 04:44:00,
2013-05-25 22:45:00,63.7,60.1,25.31,East,97,4.0,4.0,88,0.00,,---,0.00,VWS V14.01,2013-05-26 04:45:00,
2013-05-25 22:48:00,63.7,60.1,25.28,East,93,3.1,3.1,88,0.00,,---,0.00,VWS V14.01,2013-05-26 04:48:00,
2013-05-25 22:50:00,63.7,60.4,25.28,ENE,63,5.4,5.4,89,0.00,,---,0.00,VWS V14.01,2013-05-26 04:50:00,
2013-05-25 22:51:00,63.7,60.4,25.28,SE,146,4.0,5.4,89,0.00,,---,0.00,VWS V14.01,2013-05-26 04:51:00,
2013-05-25 22:53:00,63.7,60.4,25.28,ENE,74,4.0,4.0,89,0.00,,---,0.00,VWS V14.01,2013-05-26 04:53:00,
2013-05-25 22:56:00,63.9,60.6,25.28,East,86,3.1,5.8,89,0.00,,---,0.00,VWS V14.01,2013-05-26 04:56:00,
2013-05-25 22:57:00,63.9,60.6,25.28,ENE,73,3.1,3.1,89,0.00,,---,0.00,VWS V14.01,2013-05-26 04:57:00,
2013-05-25 22:58:00,63.9,60.6,25.28,SE,136,3.6,3.6,89,0.00,,---,0.00,VWS V14.01,2013-05-26 04:58:00,
2013-05-25 23:00:00,63.9,60.6,25.28,ENE,78,3.6,3.6,89,0.00,,---,0.00,VWS V14.01,2013-05-26 05:00:00,
2013-05-25 23:02:00,64.0,60.7,25.31,ENE,78,3.6,3.6,89,0.00,,---,0.00,VWS V14.01,2013-05-26 05:02:00,
2013-05-25 23:03:00,64.0,60.7,25.31,East,84,5.8,5.8,89,0.00,,---,0.00,VWS V14.01,2013-05-26 05:03:00,
2013-05-25 23:05:00,64.0,60.4,25.31,NE,55,4.0,5.8,88,0.00,,---,0.00,VWS V14.01,2013-05-26 05:05:00,
2013-05-25 23:08:00,64.0,60.4,25.31,ESE,121,3.6,3.6,88,0.00,,---,0.00,VWS V14.01,2013-05-26 05:08:00,
2013-05-25 23:11:00,64.0,60.1,25.31,East,101,3.6,5.8,87,0.00,,---,0.00,VWS V14.01,2013-05-26 05:11:00,
2013-05-25 23:12:00,64.0,60.1,25.31,NE,47,3.6,3.6,87,0.00,,---,0.00,VWS V14.01,2013-05-26 05:12:00,
2013-05-25 23:14:00,64.0,60.1,25.31,SE,124,2.7,2.7,87,0.00,,---,0.00,VWS V14.01,2013-05-26 05:14:00,
2013-05-25 23:17:00,64.0,60.1,25.31,ENE,62,3.1,3.1,87,0.00,,---,0.00,VWS V14.01,2013-05-26 05:17:00,
2013-05-25 23:19:00,64.0,60.1,25.31,NE,41,3.1,3.1,87,0.00,,---,0.00,VWS V14.01,2013-05-26 05:19:00,
2013-05-25 23:20:00,64.0,60.1,25.31,ENE,71,0.0,3.1,87,0.00,,---,0.00,VWS V14.01,2013-05-26 05:20:00,
2013-05-25 23:23:00,64.0,60.1,25.31,NE,56,0.0,2.7,87,0.00,,---,0.00,VWS V14.01,2013-05-26 05:23:00,
2013-05-25 23:25:00,63.9,59.9,25.31,SE,132,2.2,2.7,87,0.00,,---,0.00,VWS V14.01,2013-05-26 05:25:00,
2013-05-25 23:26:00,63.9,59.9,25.31,NE,35,3.1,3.1,87,0.00,,---,0.00,VWS V14.01,2013-05-26 05:26:00,
2013-05-25 23:28:00,63.9,59.9,25.31,East,87,3.6,3.6,87,0.00,,---,0.00,VWS V14.01,2013-05-26 05:28:00,
2013-05-25 23:29:00,63.9,59.6,25.31,ENE,61,4.0,4.0,86,0.00,,---,0.00,VWS V14.01,2013-05-26 05:29:00,
2013-05-25 23:31:00,63.9,59.6,25.31,East,89,0.0,3.1,86,0.00,,---,0.00,VWS V14.01,2013-05-26 05:31:00,
2013-05-25 23:32:00,63.9,59.6,25.31,East,89,0.0,0.0,86,0.00,,---,0.00,VWS V14.01,2013-05-26 05:32:00,
2013-05-25 23:34:00,64.0,59.8,25.28,East,89,0.0,0.0,86,0.00,,---,0.00,VWS V14.01,2013-05-26 05:34:00,
2013-05-25 23:35:00,64.0,59.8,25.28,East,89,0.0,0.0,86,0.00,,---,0.00,VWS V14.01,2013-05-26 05:35:00,
2013-05-25 23:37:00,64.0,59.8,25.28,NE,34,0.0,0.0,86,0.00,,---,0.00,VWS V14.01,2013-05-26 05:37:00,
2013-05-25 23:38:00,64.0,59.8,25.28,NE,34,0.0,0.0,86,0.00,,---,0.00,VWS V14.01,2013-05-26 05:38:00,
2013-05-25 23:40:00,63.9,59.6,25.28,WNW,286,3.6,3.6,86,0.00,,---,0.00,VWS V14.01,2013-05-26 05:40:00,
2013-05-25 23:42:00,63.9,59.6,25.28,West,281,2.7,2.7,86,0.00,,---,0.00,VWS V14.01,2013-05-26 05:42:00,
2013-05-25 23:43:00,63.9,59.6,25.28,West,281,2.7,2.7,86,0.00,,---,0.00,VWS V14.01,2013-05-26 05:43:00,
2013-05-25 23:45:00,63.9,59.6,25.28,WSW,248,3.1,3.1,86,0.00,,---,0.00,VWS V14.01,2013-05-26 05:45:00,
2013-05-25 23:47:00,63.9,59.6,25.28,WSW,257,3.6,3.6,86,0.00,,---,0.00,VWS V14.01,2013-05-26 05:47:00,
2013-05-25 23:48:00,63.9,59.6,25.28,West,265,3.1,3.6,86,0.00,,---,0.00,VWS V14.01,2013-05-26 05:48:00,
2013-05-25 23:50:00,63.9,59.6,25.28,ESE,103,5.8,5.8,86,0.00,,---,0.00,VWS V14.01,2013-05-26 05:50:00,
2013-05-25 23:51:00,63.9,59.6,25.28,ESE,103,5.8,5.8,86,0.00,,---,0.00,VWS V14.01,2013-05-26 05:51:00,
2013-05-25 23:52:00,63.9,59.6,25.28,SSE,168,3.1,5.8,86,0.00,,---,0.00,VWS V14.01,2013-05-26 05:52:00,
2013-05-25 23:54:00,63.7,59.4,25.28,SSW,198,0.0,3.1,86,0.00,,---,0.00,VWS V14.01,2013-05-26 05:54:00,
2013-05-25 23:56:00,63.7,59.4,25.28,North,0,3.1,3.1,86,0.00,,---,0.00,VWS V14.01,2013-05-26 05:56:00,
2013-05-25 23:58:00,63.7,59.4,25.28,SSE,150,2.2,3.1,86,0.00,,---,0.00,VWS V14.01,2013-05-26 05:58:00,